UAE247 OMDB-SBGL
Flight info
| Callsign | UAE247 |
|---|---|
| Flight time | N/A |
| Altitude | 28000 |
| Route | ANVIX R401 GIDIS G783 UKRAG L710 KUKDI B400 RIGAM B404 DEMGO UB404 HARGA UM216 RUDOL/N0505F320 DCT PATAR UN553 NALOS UT136 BUN UH1 KGI UB535 KSA/N0497F340 UT417 EBNON UB535 INALO UT417 TETUX DCT 07S005E 08S000W 10S005W 12S010W 14S015W 16S020W/N0483F360 17S025W 18S030W 19S035W DCT UMREP UZ47 MOLSU |
| Aircraft | B77W/H-SDE1E2E3FGHIJ2J3J4J5M1RWXY/LB1D1 |
Departure
| Time | 2026-05-05 14:34 |
|---|---|
| Airport | Dubai International Airport (OMDB) |
Arrival
| Time | N/A |
|---|---|
| Airport | Rio Galeão – Tom Jobim International Airport (SBGL) |
| Time | Latitude | Longitude | Altitude | Speed | Heading |
|---|---|---|---|---|---|
| 2026-05-05 13:14 | 25.25343 | 55.35070 | 76 ft | 0 kts | 31° |
| 2026-05-05 14:11 | 25.25333 | 55.35063 | 75 ft | 2 kts | 23° |
| 2026-05-05 14:11 | 25.25319 | 55.35059 | 76 ft | 2 kts | 5° |
| 2026-05-05 14:11 | 25.25304 | 55.35059 | 75 ft | 2 kts | 351° |
| 2026-05-05 14:12 | 25.25289 | 55.35063 | 75 ft | 2 kts | 336° |
| 2026-05-05 14:12 | 25.25276 | 55.35071 | 75 ft | 2 kts | 322° |
| 2026-05-05 14:12 | 25.25265 | 55.35082 | 76 ft | 2 kts | 307° |
| 2026-05-05 14:12 | 25.25260 | 55.35090 | 76 ft | 1 kts | 301° |
| 2026-05-05 14:13 | 25.25260 | 55.35091 | 75 ft | 0 kts | 301° |
| 2026-05-05 14:17 | 25.25262 | 55.35088 | 75 ft | 1 kts | 301° |
| 2026-05-05 14:18 | 25.25274 | 55.35065 | 75 ft | 5 kts | 302° |
| 2026-05-05 14:18 | 25.25297 | 55.35024 | 75 ft | 6 kts | 301° |
| 2026-05-05 14:18 | 25.25317 | 55.34989 | 75 ft | 4 kts | 302° |
| 2026-05-05 14:18 | 25.25329 | 55.34968 | 75 ft | 2 kts | 302° |
| 2026-05-05 14:19 | 25.25338 | 55.34952 | 75 ft | 2 kts | 303° |
| 2026-05-05 14:19 | 25.25356 | 55.34928 | 75 ft | 5 kts | 313° |
| 2026-05-05 14:19 | 25.25393 | 55.34898 | 75 ft | 7 kts | 336° |
| 2026-05-05 14:19 | 25.25454 | 55.34895 | 75 ft | 9 kts | 21° |
| 2026-05-05 14:20 | 25.25505 | 55.34929 | 75 ft | 7 kts | 31° |
| 2026-05-05 14:20 | 25.25543 | 55.34955 | 75 ft | 6 kts | 32° |
| 2026-05-05 14:20 | 25.25569 | 55.34973 | 77 ft | 4 kts | 31° |
| 2026-05-05 14:20 | 25.25572 | 55.34975 | 72 ft | 0 kts | 30° |
| 2026-05-05 14:21 | 25.25609 | 55.34997 | 75 ft | 12 kts | 28° |
| 2026-05-05 14:21 | 25.25675 | 55.35040 | 75 ft | 9 kts | 32° |
| 2026-05-05 14:21 | 25.25722 | 55.35074 | 75 ft | 6 kts | 40° |
| 2026-05-05 14:21 | 25.25737 | 55.35109 | 75 ft | 4 kts | 86° |
| 2026-05-05 14:22 | 25.25728 | 55.35150 | 75 ft | 7 kts | 106° |
| 2026-05-05 14:22 | 25.25741 | 55.35198 | 75 ft | 5 kts | 37° |
| 2026-05-05 14:22 | 25.25773 | 55.35221 | 76 ft | 5 kts | 33° |
| 2026-05-05 14:22 | 25.25810 | 55.35247 | 75 ft | 6 kts | 32° |
| 2026-05-05 14:23 | 25.25855 | 55.35278 | 76 ft | 7 kts | 32° |
| 2026-05-05 14:23 | 25.25894 | 55.35305 | 76 ft | 5 kts | 31° |
| 2026-05-05 14:23 | 25.25924 | 55.35326 | 76 ft | 5 kts | 31° |
| 2026-05-05 14:23 | 25.25960 | 55.35357 | 76 ft | 7 kts | 46° |
| 2026-05-05 14:24 | 25.25992 | 55.35418 | 75 ft | 10 kts | 71° |
| 2026-05-05 14:24 | 25.25994 | 55.35507 | 76 ft | 12 kts | 108° |
| 2026-05-05 14:24 | 25.25950 | 55.35596 | 76 ft | 13 kts | 121° |
| 2026-05-05 14:24 | 25.25898 | 55.35691 | 76 ft | 14 kts | 121° |
| 2026-05-05 14:25 | 25.25844 | 55.35789 | 76 ft | 14 kts | 121° |
| 2026-05-05 14:25 | 25.25798 | 55.35873 | 76 ft | 11 kts | 121° |
| 2026-05-05 14:25 | 25.25760 | 55.35940 | 76 ft | 9 kts | 121° |
| 2026-05-05 14:25 | 25.25730 | 55.35993 | 76 ft | 7 kts | 121° |
| 2026-05-05 14:26 | 25.25703 | 55.36043 | 76 ft | 8 kts | 121° |
| 2026-05-05 14:26 | 25.25664 | 55.36112 | 76 ft | 11 kts | 121° |
| 2026-05-05 14:26 | 25.25619 | 55.36196 | 76 ft | 13 kts | 121° |
| 2026-05-05 14:26 | 25.25569 | 55.36286 | 76 ft | 14 kts | 121° |
| 2026-05-05 14:27 | 25.25510 | 55.36395 | 76 ft | 18 kts | 121° |
| 2026-05-05 14:27 | 25.25441 | 55.36517 | 76 ft | 18 kts | 122° |
| 2026-05-05 14:27 | 25.25378 | 55.36626 | 76 ft | 14 kts | 121° |
| 2026-05-05 14:27 | 25.25332 | 55.36711 | 76 ft | 12 kts | 121° |
| 2026-05-05 14:28 | 25.25288 | 55.36791 | 76 ft | 12 kts | 121° |
| 2026-05-05 14:28 | 25.25241 | 55.36876 | 76 ft | 13 kts | 121° |
| 2026-05-05 14:28 | 25.25186 | 55.36972 | 76 ft | 15 kts | 122° |
| 2026-05-05 14:28 | 25.25128 | 55.37075 | 76 ft | 15 kts | 121° |
| 2026-05-05 14:29 | 25.25078 | 55.37165 | 76 ft | 12 kts | 121° |
| 2026-05-05 14:29 | 25.25035 | 55.37245 | 76 ft | 12 kts | 120° |
| 2026-05-05 14:29 | 25.24992 | 55.37324 | 76 ft | 11 kts | 121° |
| 2026-05-05 14:29 | 25.24949 | 55.37403 | 76 ft | 11 kts | 121° |
| 2026-05-05 14:30 | 25.24904 | 55.37484 | 76 ft | 12 kts | 121° |
| 2026-05-05 14:30 | 25.24856 | 55.37570 | 76 ft | 13 kts | 121° |
| 2026-05-05 14:30 | 25.24805 | 55.37662 | 76 ft | 14 kts | 121° |
| 2026-05-05 14:30 | 25.24751 | 55.37759 | 76 ft | 15 kts | 121° |
| 2026-05-05 14:31 | 25.24700 | 55.37851 | 76 ft | 12 kts | 121° |
| 2026-05-05 14:31 | 25.24670 | 55.37907 | 76 ft | 6 kts | 114° |
| 2026-05-05 14:31 | 25.24682 | 55.37957 | 76 ft | 8 kts | 45° |
| 2026-05-05 14:31 | 25.24736 | 55.37998 | 76 ft | 10 kts | 31° |
| 2026-05-05 14:32 | 25.24781 | 55.38029 | 76 ft | 3 kts | 31° |
| 2026-05-05 14:32 | 25.24793 | 55.38032 | 76 ft | 1 kts | 356° |
| 2026-05-05 14:32 | 25.24807 | 55.38023 | 76 ft | 4 kts | 308° |
| 2026-05-05 14:32 | 25.24822 | 55.37996 | 76 ft | 4 kts | 302° |
| 2026-05-05 14:33 | 25.24843 | 55.37960 | 76 ft | 11 kts | 302° |
| 2026-05-05 14:33 | 25.24982 | 55.37717 | 76 ft | 65 kts | 301° |
| 2026-05-05 14:33 | 25.25318 | 55.37110 | 76 ft | 117 kts | 301° |
| 2026-05-05 14:33 | 25.25820 | 55.36200 | 76 ft | 162 kts | 301° |
| 2026-05-05 14:34 | 25.26481 | 55.35005 | 105 ft | 197 kts | 302° |
| 2026-05-05 14:34 | 25.27211 | 55.33670 | 505 ft | 204 kts | 302° |
| 2026-05-05 14:34 | 25.27942 | 55.32324 | 1040 ft | 211 kts | 302° |
| 2026-05-05 14:34 | 25.28664 | 55.30959 | 1690 ft | 203 kts | 295° |
| 2026-05-05 14:35 | 25.29022 | 55.29444 | 2035 ft | 208 kts | 273° |
| 2026-05-05 14:35 | 25.28847 | 55.27852 | 2398 ft | 211 kts | 250° |
| 2026-05-05 14:35 | 25.28251 | 55.26355 | 2783 ft | 212 kts | 244° |
| 2026-05-05 14:35 | 25.27612 | 55.24885 | 3156 ft | 214 kts | 244° |
| 2026-05-05 14:36 | 25.26978 | 55.23402 | 3535 ft | 216 kts | 244° |
| 2026-05-05 14:36 | 25.26344 | 55.21909 | 3939 ft | 215 kts | 244° |
| 2026-05-05 14:36 | 25.25703 | 55.20401 | 4209 ft | 224 kts | 245° |
| 2026-05-05 14:36 | 25.24995 | 55.18779 | 4312 ft | 241 kts | 238° |
| 2026-05-05 14:37 | 25.23818 | 55.17420 | 4507 ft | 250 kts | 208° |
| 2026-05-05 14:37 | 25.22178 | 55.16818 | 4841 ft | 253 kts | 182° |
| 2026-05-05 14:37 | 25.20397 | 55.16871 | 5163 ft | 258 kts | 167° |
| 2026-05-05 14:37 | 25.18737 | 55.17589 | 5583 ft | 256 kts | 143° |
| 2026-05-05 14:38 | 25.17479 | 55.18955 | 5945 ft | 258 kts | 121° |
| 2026-05-05 14:38 | 25.16656 | 55.20715 | 6368 ft | 259 kts | 114° |
| 2026-05-05 14:38 | 25.15881 | 55.22495 | 6834 ft | 261 kts | 116° |
| 2026-05-05 14:38 | 25.15032 | 55.24324 | 6957 ft | 277 kts | 117° |
| 2026-05-05 14:39 | 25.14100 | 55.26273 | 7170 ft | 292 kts | 117° |
| 2026-05-05 14:39 | 25.13139 | 55.28271 | 7608 ft | 298 kts | 117° |
| 2026-05-05 14:39 | 25.12150 | 55.30325 | 8103 ft | 303 kts | 117° |
| 2026-05-05 14:39 | 25.11142 | 55.32420 | 8298 ft | 319 kts | 117° |
| 2026-05-05 14:40 | 25.10106 | 55.34646 | 8491 ft | 334 kts | 114° |
| 2026-05-05 14:40 | 25.09130 | 55.37054 | 8679 ft | 350 kts | 113° |
| 2026-05-05 14:40 | 25.08123 | 55.39556 | 8905 ft | 364 kts | 114° |
| 2026-05-05 14:40 | 25.07088 | 55.42094 | 9403 ft | 367 kts | 113° |
| 2026-05-05 14:41 | 25.06089 | 55.44673 | 10109 ft | 366 kts | 112° |
| 2026-05-05 14:41 | 25.05092 | 55.47293 | 10436 ft | 375 kts | 112° |
| 2026-05-05 14:41 | 25.04073 | 55.49956 | 10844 ft | 382 kts | 112° |
| 2026-05-05 14:41 | 25.03030 | 55.52673 | 11373 ft | 384 kts | 112° |
| 2026-05-05 14:42 | 25.01951 | 55.55368 | 11874 ft | 388 kts | 117° |
| 2026-05-05 14:42 | 25.00609 | 55.57962 | 12357 ft | 391 kts | 120° |
| 2026-05-05 14:42 | 24.99214 | 55.60545 | 12847 ft | 394 kts | 120° |
| 2026-05-05 14:42 | 24.97807 | 55.63145 | 13343 ft | 397 kts | 120° |
| 2026-05-05 14:43 | 24.96395 | 55.65755 | 13805 ft | 400 kts | 120° |
| 2026-05-05 14:43 | 24.94960 | 55.68408 | 14283 ft | 403 kts | 120° |
| 2026-05-05 14:43 | 24.93439 | 55.70988 | 14750 ft | 406 kts | 125° |
| 2026-05-05 14:43 | 24.91770 | 55.73518 | 14998 ft | 412 kts | 126° |
| 2026-05-05 14:44 | 24.90074 | 55.76071 | 15016 ft | 410 kts | 126° |
| 2026-05-05 14:44 | 24.88394 | 55.78599 | 15023 ft | 414 kts | 126° |
| 2026-05-05 14:44 | 24.86676 | 55.81186 | 15440 ft | 417 kts | 126° |
| 2026-05-05 14:44 | 24.84965 | 55.83762 | 16104 ft | 415 kts | 126° |
| 2026-05-05 14:45 | 24.83248 | 55.86335 | 16553 ft | 418 kts | 127° |
| 2026-05-05 14:45 | 24.81346 | 55.88720 | 16923 ft | 423 kts | 136° |
| 2026-05-05 14:45 | 24.79037 | 55.90735 | 17332 ft | 426 kts | 147° |
| 2026-05-05 14:45 | 24.76411 | 55.92288 | 17765 ft | 428 kts | 158° |
| 2026-05-05 14:46 | 24.73572 | 55.93314 | 18184 ft | 430 kts | 168° |
| 2026-05-05 14:46 | 24.70597 | 55.93780 | 18561 ft | 433 kts | 178° |
| 2026-05-05 14:46 | 24.67561 | 55.93745 | 18963 ft | 435 kts | 183° |
| 2026-05-05 14:46 | 24.64556 | 55.93496 | 19358 ft | 436 kts | 190° |
| 2026-05-05 14:47 | 24.61597 | 55.92722 | 19745 ft | 437 kts | 200° |
| 2026-05-05 14:47 | 24.58766 | 55.91385 | 20131 ft | 438 kts | 210° |
| 2026-05-05 14:47 | 24.56219 | 55.89556 | 20513 ft | 438 kts | 220° |
| 2026-05-05 14:47 | 24.53862 | 55.87377 | 20906 ft | 440 kts | 223° |
| 2026-05-05 14:48 | 24.51549 | 55.85164 | 21296 ft | 442 kts | 223° |
| 2026-05-05 14:48 | 24.49214 | 55.82924 | 21671 ft | 445 kts | 223° |
| 2026-05-05 14:48 | 24.46893 | 55.80697 | 22022 ft | 447 kts | 223° |
| 2026-05-05 14:48 | 24.44546 | 55.78444 | 22378 ft | 450 kts | 223° |
| 2026-05-05 14:49 | 24.42188 | 55.76180 | 22745 ft | 452 kts | 223° |
| 2026-05-05 14:49 | 24.39798 | 55.73886 | 23132 ft | 453 kts | 223° |
| 2026-05-05 14:49 | 24.37437 | 55.71622 | 23492 ft | 454 kts | 223° |
| 2026-05-05 14:49 | 24.35045 | 55.69326 | 23849 ft | 456 kts | 223° |
| 2026-05-05 14:50 | 24.32642 | 55.67022 | 24181 ft | 457 kts | 223° |
| 2026-05-05 14:50 | 24.30227 | 55.64708 | 24514 ft | 459 kts | 224° |
| 2026-05-05 14:50 | 24.27770 | 55.62517 | 24828 ft | 462 kts | 217° |
| 2026-05-05 14:50 | 24.24939 | 55.60701 | 25127 ft | 467 kts | 208° |
| 2026-05-05 14:51 | 24.21780 | 55.59376 | 25414 ft | 472 kts | 199° |
| 2026-05-05 14:51 | 24.18480 | 55.58361 | 25750 ft | 474 kts | 198° |
| 2026-05-05 14:51 | 24.15316 | 55.57420 | 26061 ft | 476 kts | 198° |
| 2026-05-05 14:51 | 24.12099 | 55.56464 | 26353 ft | 478 kts | 198° |
| 2026-05-05 14:52 | 24.08862 | 55.55501 | 26671 ft | 479 kts | 198° |
| 2026-05-05 14:52 | 24.05614 | 55.54534 | 26982 ft | 481 kts | 198° |
| 2026-05-05 14:52 | 24.02409 | 55.53580 | 27263 ft | 483 kts | 198° |
| 2026-05-05 14:52 | 23.99132 | 55.52604 | 27561 ft | 484 kts | 198° |
| 2026-05-05 14:53 | 23.95865 | 55.51635 | 27867 ft | 486 kts | 198° |
| 2026-05-05 14:53 | 23.92597 | 55.50665 | 28156 ft | 487 kts | 199° |
| 2026-05-05 14:53 | 23.89307 | 55.49689 | 28422 ft | 489 kts | 199° |
| 2026-05-05 14:53 | 23.86015 | 55.48713 | 28706 ft | 491 kts | 199° |
| 2026-05-05 14:54 | 23.82706 | 55.47731 | 28985 ft | 492 kts | 199° |
| 2026-05-05 14:54 | 23.79363 | 55.46738 | 29333 ft | 492 kts | 199° |
| 2026-05-05 14:54 | 23.75999 | 55.45740 | 29707 ft | 492 kts | 199° |
| 2026-05-05 14:54 | 23.72712 | 55.44765 | 29755 ft | 493 kts | 199° |
| 2026-05-05 14:55 | 23.66074 | 55.42798 | 29760 ft | 489 kts | 199° |
| 2026-05-05 14:55 | 23.59472 | 55.40842 | 29756 ft | 488 kts | 199° |
| 2026-05-05 14:56 | 23.52784 | 55.39404 | 29749 ft | 495 kts | 186° |
| 2026-05-05 14:56 | 23.45881 | 55.40101 | 29747 ft | 504 kts | 169° |
| 2026-05-05 14:57 | 23.39100 | 55.42073 | 29751 ft | 506 kts | 167° |
| 2026-05-05 14:57 | 23.32324 | 55.44248 | 29745 ft | 506 kts | 167° |
| 2026-05-05 14:58 | 23.25588 | 55.46397 | 29738 ft | 504 kts | 167° |
| 2026-05-05 14:58 | 23.18804 | 55.48550 | 29736 ft | 504 kts | 167° |
| 2026-05-05 14:59 | 23.12071 | 55.50678 | 29731 ft | 505 kts | 167° |
| 2026-05-05 14:59 | 23.05323 | 55.52806 | 29729 ft | 505 kts | 167° |
| 2026-05-05 15:00 | 22.99658 | 55.54570 | 29735 ft | 505 kts | 167° |
| 2026-05-05 15:00 | 22.91737 | 55.57000 | 29735 ft | 505 kts | 167° |
| 2026-05-05 15:01 | 22.84961 | 55.59078 | 29735 ft | 505 kts | 167° |
| 2026-05-05 15:01 | 22.78153 | 55.61164 | 29738 ft | 506 kts | 167° |
| 2026-05-05 15:02 | 22.71366 | 55.63242 | 29730 ft | 504 kts | 167° |
| 2026-05-05 15:02 | 22.64638 | 55.65300 | 29730 ft | 503 kts | 167° |
| 2026-05-05 15:03 | 22.57885 | 55.67366 | 29733 ft | 503 kts | 167° |
| 2026-05-05 15:03 | 22.51157 | 55.69425 | 29729 ft | 503 kts | 167° |
| 2026-05-05 15:04 | 22.44425 | 55.71483 | 29728 ft | 503 kts | 167° |
| 2026-05-05 15:04 | 22.37684 | 55.73542 | 29729 ft | 502 kts | 167° |
| 2026-05-05 15:05 | 22.27583 | 55.76614 | 29720 ft | 502 kts | 168° |
| 2026-05-05 15:06 | 22.20711 | 55.77667 | 29729 ft | 498 kts | 177° |
| 2026-05-05 15:06 | 22.13783 | 55.78352 | 29723 ft | 498 kts | 177° |
| 2026-05-05 15:07 | 22.06903 | 55.79033 | 29721 ft | 498 kts | 177° |
| 2026-05-05 15:07 | 21.99983 | 55.79719 | 29719 ft | 498 kts | 177° |
| 2026-05-05 15:08 | 21.93033 | 55.80408 | 29718 ft | 498 kts | 177° |
| 2026-05-05 15:08 | 21.86136 | 55.81092 | 29713 ft | 498 kts | 177° |
| 2026-05-05 15:09 | 21.79225 | 55.81776 | 29716 ft | 498 kts | 177° |
| 2026-05-05 15:09 | 21.72320 | 55.82459 | 29720 ft | 498 kts | 177° |
| 2026-05-05 15:10 | 21.65413 | 55.83140 | 29720 ft | 498 kts | 177° |
| 2026-05-05 15:10 | 21.58511 | 55.83818 | 29712 ft | 498 kts | 176° |
| 2026-05-05 15:11 | 21.51596 | 55.84497 | 29708 ft | 497 kts | 176° |
| 2026-05-05 15:11 | 21.44713 | 55.85171 | 29709 ft | 496 kts | 176° |
| 2026-05-05 15:12 | 21.37813 | 55.85847 | 29715 ft | 497 kts | 176° |
| 2026-05-05 15:12 | 21.30920 | 55.86522 | 29718 ft | 497 kts | 176° |
| 2026-05-05 15:13 | 21.24017 | 55.87196 | 29723 ft | 498 kts | 176° |
| 2026-05-05 15:13 | 21.17099 | 55.87870 | 29722 ft | 497 kts | 176° |
| 2026-05-05 15:14 | 21.10186 | 55.88543 | 29730 ft | 497 kts | 176° |
| 2026-05-05 15:14 | 21.03308 | 55.89212 | 29727 ft | 497 kts | 176° |
| 2026-05-05 15:15 | 20.96422 | 55.89881 | 29729 ft | 496 kts | 176° |
| 2026-05-05 15:15 | 20.89513 | 55.90552 | 29734 ft | 496 kts | 176° |
| 2026-05-05 15:16 | 20.82651 | 55.91217 | 29733 ft | 496 kts | 176° |
| 2026-05-05 15:16 | 20.75744 | 55.91887 | 29736 ft | 497 kts | 176° |
| 2026-05-05 15:17 | 20.68821 | 55.92558 | 29739 ft | 497 kts | 176° |
| 2026-05-05 15:17 | 20.61923 | 55.93226 | 29741 ft | 496 kts | 176° |
| 2026-05-05 15:18 | 20.55055 | 55.93890 | 29745 ft | 496 kts | 176° |
| 2026-05-05 15:18 | 20.48148 | 55.94558 | 29752 ft | 495 kts | 176° |
| 2026-05-05 15:19 | 20.41303 | 55.95219 | 29755 ft | 496 kts | 176° |
| 2026-05-05 15:19 | 20.34396 | 55.95885 | 29755 ft | 496 kts | 176° |
| 2026-05-05 15:20 | 20.27526 | 55.96544 | 29755 ft | 497 kts | 176° |
| 2026-05-05 15:20 | 20.20600 | 55.97203 | 29755 ft | 496 kts | 176° |
| 2026-05-05 15:21 | 20.13749 | 55.97855 | 29755 ft | 496 kts | 176° |
| 2026-05-05 15:21 | 20.06847 | 55.98494 | 29748 ft | 496 kts | 179° |
| 2026-05-05 15:22 | 19.99930 | 55.98660 | 29757 ft | 495 kts | 181° |
| 2026-05-05 15:22 | 19.93025 | 55.98794 | 29759 ft | 494 kts | 180° |
| 2026-05-05 15:23 | 19.86136 | 55.98945 | 29756 ft | 495 kts | 180° |
| 2026-05-05 15:23 | 19.79261 | 55.99105 | 29751 ft | 495 kts | 180° |
| 2026-05-05 15:24 | 19.72365 | 55.99271 | 29760 ft | 495 kts | 180° |
| 2026-05-05 15:24 | 19.65470 | 55.99440 | 29761 ft | 494 kts | 180° |
| 2026-05-05 15:25 | 19.58567 | 55.99610 | 29766 ft | 494 kts | 180° |
| 2026-05-05 15:25 | 19.51746 | 55.99110 | 29763 ft | 491 kts | 194° |
| 2026-05-05 15:26 | 19.45392 | 55.96587 | 29766 ft | 488 kts | 210° |
| 2026-05-05 15:26 | 19.39466 | 55.93035 | 29770 ft | 488 kts | 211° |
| 2026-05-05 15:27 | 19.33546 | 55.89451 | 29770 ft | 489 kts | 211° |
| 2026-05-05 15:27 | 19.27633 | 55.85871 | 29773 ft | 489 kts | 211° |
| 2026-05-05 15:28 | 19.21756 | 55.82315 | 29774 ft | 488 kts | 211° |
| 2026-05-05 15:28 | 19.15853 | 55.78746 | 29775 ft | 487 kts | 211° |
| 2026-05-05 15:29 | 19.09942 | 55.75176 | 29779 ft | 488 kts | 211° |
| 2026-05-05 15:29 | 19.04069 | 55.71632 | 29779 ft | 488 kts | 211° |
| 2026-05-05 15:30 | 18.98145 | 55.68059 | 29780 ft | 488 kts | 211° |
| 2026-05-05 15:30 | 18.92248 | 55.64507 | 29785 ft | 489 kts | 211° |
| 2026-05-05 15:31 | 18.86303 | 55.60929 | 29787 ft | 488 kts | 211° |
| 2026-05-05 15:31 | 18.80388 | 55.57371 | 29792 ft | 488 kts | 211° |
| 2026-05-05 15:32 | 18.74497 | 55.53831 | 29795 ft | 488 kts | 211° |
| 2026-05-05 15:32 | 18.68590 | 55.50284 | 29795 ft | 488 kts | 211° |
| 2026-05-05 15:33 | 18.62679 | 55.46738 | 29798 ft | 489 kts | 211° |
| 2026-05-05 15:33 | 18.56790 | 55.43208 | 29802 ft | 488 kts | 211° |
| 2026-05-05 15:34 | 18.50853 | 55.39652 | 29801 ft | 488 kts | 211° |
| 2026-05-05 15:34 | 18.44966 | 55.36127 | 29800 ft | 488 kts | 211° |
| 2026-05-05 15:35 | 18.39019 | 55.32571 | 29804 ft | 488 kts | 211° |
| 2026-05-05 15:35 | 18.33115 | 55.29044 | 29799 ft | 488 kts | 211° |
| 2026-05-05 15:36 | 18.27187 | 55.25505 | 29801 ft | 489 kts | 211° |
| 2026-05-05 15:36 | 18.21260 | 55.21971 | 29806 ft | 489 kts | 210° |
| 2026-05-05 15:37 | 18.15336 | 55.18443 | 29812 ft | 489 kts | 210° |
| 2026-05-05 15:37 | 18.09131 | 55.15471 | 29822 ft | 490 kts | 204° |
| 2026-05-05 15:38 | 18.02900 | 55.12678 | 29833 ft | 489 kts | 204° |
| 2026-05-05 15:38 | 17.96621 | 55.09864 | 29838 ft | 489 kts | 204° |
| 2026-05-05 15:39 | 17.90359 | 55.07056 | 29841 ft | 489 kts | 204° |
| 2026-05-05 15:39 | 17.84051 | 55.04229 | 29852 ft | 490 kts | 204° |
| 2026-05-05 15:40 | 17.77786 | 55.01423 | 29861 ft | 490 kts | 204° |
| 2026-05-05 15:40 | 17.71506 | 54.98612 | 29871 ft | 490 kts | 204° |
| 2026-05-05 15:41 | 17.65241 | 54.95810 | 29887 ft | 490 kts | 204° |
| 2026-05-05 15:41 | 17.58935 | 54.92991 | 29906 ft | 490 kts | 204° |
| 2026-05-05 15:42 | 17.52681 | 54.90198 | 29922 ft | 491 kts | 204° |
| 2026-05-05 15:42 | 17.46372 | 54.87382 | 29942 ft | 491 kts | 204° |
| 2026-05-05 15:43 | 17.40063 | 54.84569 | 29972 ft | 491 kts | 204° |
| 2026-05-05 15:43 | 17.33781 | 54.81770 | 30005 ft | 491 kts | 204° |
| 2026-05-05 15:44 | 17.27482 | 54.78909 | 30020 ft | 490 kts | 208° |
| 2026-05-05 15:44 | 17.21675 | 54.75201 | 30022 ft | 491 kts | 213° |
| 2026-05-05 15:45 | 17.15914 | 54.71336 | 29948 ft | 490 kts | 213° |
| 2026-05-05 15:45 | 17.10165 | 54.67484 | 29886 ft | 490 kts | 213° |
| 2026-05-05 15:46 | 17.04442 | 54.63656 | 29844 ft | 490 kts | 213° |
| 2026-05-05 15:46 | 16.98681 | 54.59806 | 29813 ft | 489 kts | 213° |
| 2026-05-05 15:47 | 16.92947 | 54.55977 | 29812 ft | 490 kts | 213° |
| 2026-05-05 15:47 | 16.87167 | 54.52121 | 29814 ft | 491 kts | 213° |
| 2026-05-05 15:48 | 16.81420 | 54.48286 | 29813 ft | 492 kts | 213° |
| 2026-05-05 15:48 | 16.75639 | 54.44433 | 29813 ft | 492 kts | 213° |
| 2026-05-05 15:49 | 16.69880 | 54.40598 | 29816 ft | 491 kts | 213° |
| 2026-05-05 15:49 | 16.64100 | 54.36752 | 29815 ft | 491 kts | 213° |
| 2026-05-05 15:50 | 16.58340 | 54.32921 | 29813 ft | 493 kts | 213° |
| 2026-05-05 15:50 | 16.52548 | 54.29071 | 29812 ft | 496 kts | 213° |
| 2026-05-05 15:51 | 16.46699 | 54.25187 | 29817 ft | 496 kts | 213° |
| 2026-05-05 15:51 | 16.40890 | 54.21332 | 29821 ft | 497 kts | 213° |
| 2026-05-05 15:52 | 16.35022 | 54.17441 | 29825 ft | 495 kts | 213° |
| 2026-05-05 15:52 | 16.29246 | 54.13614 | 29827 ft | 492 kts | 213° |
| 2026-05-05 15:53 | 16.23445 | 54.09772 | 29825 ft | 492 kts | 213° |
| 2026-05-05 15:53 | 16.17658 | 54.05943 | 29827 ft | 493 kts | 213° |
| 2026-05-05 15:54 | 16.11877 | 54.02121 | 29827 ft | 495 kts | 212° |
| 2026-05-05 15:54 | 16.06024 | 53.98253 | 29827 ft | 496 kts | 212° |
| 2026-05-05 15:55 | 16.00215 | 53.94418 | 29825 ft | 496 kts | 212° |
| 2026-05-05 15:55 | 15.94396 | 53.90578 | 29826 ft | 495 kts | 212° |
| 2026-05-05 15:56 | 15.88566 | 53.86734 | 29816 ft | 493 kts | 213° |
| 2026-05-05 15:56 | 15.82789 | 53.82885 | 29811 ft | 494 kts | 213° |
| 2026-05-05 15:57 | 15.77024 | 53.79028 | 29808 ft | 495 kts | 213° |
| 2026-05-05 15:57 | 15.71201 | 53.75136 | 29810 ft | 497 kts | 213° |
| 2026-05-05 15:58 | 15.65387 | 53.71254 | 29808 ft | 497 kts | 213° |
| 2026-05-05 15:58 | 15.59581 | 53.67381 | 29807 ft | 498 kts | 213° |
| 2026-05-05 15:59 | 15.53750 | 53.63493 | 29807 ft | 496 kts | 213° |
| 2026-05-05 15:59 | 15.47935 | 53.59619 | 29805 ft | 494 kts | 212° |
| 2026-05-05 16:00 | 15.42141 | 53.55771 | 29807 ft | 496 kts | 212° |
| 2026-05-05 16:00 | 15.36264 | 53.52003 | 29807 ft | 496 kts | 211° |
| 2026-05-05 16:01 | 15.30391 | 53.48246 | 29806 ft | 495 kts | 211° |
| 2026-05-05 16:01 | 15.24534 | 53.44498 | 29806 ft | 496 kts | 211° |
| 2026-05-05 16:02 | 15.18666 | 53.40742 | 29806 ft | 496 kts | 211° |
| 2026-05-05 16:02 | 15.12795 | 53.36986 | 29807 ft | 497 kts | 211° |
| 2026-05-05 16:03 | 15.06912 | 53.33225 | 29805 ft | 497 kts | 211° |
| 2026-05-05 16:03 | 15.01015 | 53.29455 | 29805 ft | 496 kts | 211° |
| 2026-05-05 16:04 | 14.95127 | 53.25695 | 29809 ft | 497 kts | 211° |
| 2026-05-05 16:04 | 14.89221 | 53.21925 | 29814 ft | 497 kts | 211° |
| 2026-05-05 16:05 | 14.83349 | 53.18179 | 29817 ft | 496 kts | 211° |
| 2026-05-05 16:05 | 14.77450 | 53.14418 | 29824 ft | 496 kts | 211° |
| 2026-05-05 16:06 | 14.71592 | 53.10686 | 29827 ft | 496 kts | 211° |
| 2026-05-05 16:06 | 14.66174 | 53.06296 | 29824 ft | 498 kts | 227° |
| 2026-05-05 16:07 | 14.62147 | 53.00458 | 29832 ft | 499 kts | 239° |
| 2026-05-05 16:07 | 14.58666 | 52.94331 | 29827 ft | 499 kts | 239° |
| 2026-05-05 16:08 | 14.55162 | 52.88156 | 29827 ft | 498 kts | 239° |
| 2026-05-05 16:08 | 14.51647 | 52.81969 | 29826 ft | 497 kts | 239° |
| 2026-05-05 16:09 | 14.48160 | 52.75838 | 29823 ft | 498 kts | 239° |
| 2026-05-05 16:09 | 14.44658 | 52.69684 | 29820 ft | 498 kts | 239° |
| 2026-05-05 16:10 | 14.41139 | 52.63507 | 29821 ft | 498 kts | 239° |
| 2026-05-05 16:10 | 14.37637 | 52.57364 | 29818 ft | 498 kts | 239° |
| 2026-05-05 16:11 | 14.34134 | 52.51223 | 29812 ft | 498 kts | 239° |
| 2026-05-05 16:12 | 14.27094 | 52.38898 | 29807 ft | 498 kts | 239° |
| 2026-05-05 16:13 | 14.18302 | 52.23532 | 29806 ft | 498 kts | 239° |
| 2026-05-05 16:13 | 14.14791 | 52.17403 | 29808 ft | 497 kts | 239° |
| 2026-05-05 16:14 | 14.07758 | 52.05142 | 29822 ft | 497 kts | 239° |
| 2026-05-05 16:15 | 14.00726 | 51.92899 | 29824 ft | 498 kts | 238° |
| 2026-05-05 16:16 | 13.93694 | 51.80676 | 29821 ft | 496 kts | 239° |
| 2026-05-05 16:17 | 13.88393 | 51.71473 | 29828 ft | 497 kts | 239° |
| 2026-05-05 16:18 | 13.83104 | 51.62301 | 29827 ft | 497 kts | 239° |
| 2026-05-05 16:19 | 13.77805 | 51.53122 | 29828 ft | 498 kts | 238° |
| 2026-05-05 16:19 | 13.72544 | 51.43955 | 29828 ft | 498 kts | 239° |
| 2026-05-05 16:20 | 13.65643 | 51.31638 | 29826 ft | 498 kts | 239° |
| 2026-05-05 16:22 | 13.56984 | 51.16231 | 29824 ft | 499 kts | 239° |
| 2026-05-05 16:23 | 13.50043 | 51.03907 | 29816 ft | 499 kts | 239° |
| 2026-05-05 16:23 | 13.44831 | 50.94665 | 29816 ft | 499 kts | 239° |
| 2026-05-05 16:24 | 13.41331 | 50.88466 | 29811 ft | 499 kts | 239° |
| 2026-05-05 16:25 | 13.36117 | 50.79237 | 29807 ft | 500 kts | 239° |
| 2026-05-05 16:25 | 13.30886 | 50.69989 | 29807 ft | 500 kts | 239° |
| 2026-05-05 16:26 | 13.23913 | 50.57677 | 29807 ft | 499 kts | 239° |
| 2026-05-05 16:27 | 13.20426 | 50.51526 | 29807 ft | 500 kts | 239° |
| 2026-05-05 16:27 | 13.16911 | 50.45354 | 29808 ft | 500 kts | 239° |
| 2026-05-05 16:28 | 13.13417 | 50.39230 | 29807 ft | 499 kts | 239° |
| 2026-05-05 16:28 | 13.09893 | 50.33058 | 29806 ft | 500 kts | 239° |
| 2026-05-05 16:29 | 13.06402 | 50.26947 | 29806 ft | 499 kts | 239° |
| 2026-05-05 16:29 | 13.02889 | 50.20801 | 29805 ft | 499 kts | 239° |
| 2026-05-05 16:30 | 12.99380 | 50.14667 | 29808 ft | 500 kts | 239° |
| 2026-05-05 16:30 | 12.95867 | 50.08530 | 29809 ft | 500 kts | 239° |
| 2026-05-05 16:31 | 12.92355 | 50.02399 | 29808 ft | 499 kts | 239° |
| 2026-05-05 16:31 | 12.88843 | 49.96272 | 29808 ft | 500 kts | 239° |
| 2026-05-05 16:32 | 12.85321 | 49.90131 | 29808 ft | 500 kts | 239° |
| 2026-05-05 16:32 | 12.81786 | 49.83973 | 29811 ft | 500 kts | 239° |
| 2026-05-05 16:33 | 12.78265 | 49.77842 | 29813 ft | 501 kts | 239° |
| 2026-05-05 16:33 | 12.74724 | 49.71681 | 29812 ft | 499 kts | 239° |
| 2026-05-05 16:34 | 12.71199 | 49.65553 | 29819 ft | 501 kts | 239° |
| 2026-05-05 16:34 | 12.67659 | 49.59401 | 29822 ft | 502 kts | 239° |
| 2026-05-05 16:35 | 12.64120 | 49.53258 | 29824 ft | 502 kts | 239° |
| 2026-05-05 16:35 | 12.60595 | 49.47141 | 29828 ft | 502 kts | 239° |
| 2026-05-05 16:36 | 12.57039 | 49.40974 | 29830 ft | 502 kts | 239° |
| 2026-05-05 16:36 | 12.53499 | 49.34841 | 29828 ft | 502 kts | 239° |
| 2026-05-05 16:37 | 12.49935 | 49.28669 | 29825 ft | 502 kts | 239° |
| 2026-05-05 16:37 | 12.46390 | 49.22535 | 29829 ft | 502 kts | 239° |
| 2026-05-05 16:38 | 12.42829 | 49.16376 | 29830 ft | 503 kts | 239° |
| 2026-05-05 16:38 | 12.39272 | 49.10229 | 29827 ft | 504 kts | 239° |
| 2026-05-05 16:39 | 12.35718 | 49.04092 | 29827 ft | 502 kts | 239° |
| 2026-05-05 16:39 | 12.32153 | 48.97939 | 29825 ft | 503 kts | 239° |
| 2026-05-05 16:40 | 12.28598 | 48.91807 | 29815 ft | 502 kts | 239° |
| 2026-05-05 16:40 | 12.25039 | 48.85672 | 29806 ft | 502 kts | 239° |
| 2026-05-05 16:41 | 12.21487 | 48.79554 | 29807 ft | 502 kts | 239° |
| 2026-05-05 16:41 | 12.17914 | 48.73403 | 29808 ft | 504 kts | 239° |
| 2026-05-05 16:42 | 12.14341 | 48.67258 | 29807 ft | 503 kts | 239° |
| 2026-05-05 16:42 | 12.10784 | 48.61142 | 29807 ft | 503 kts | 239° |
| 2026-05-05 16:43 | 12.07205 | 48.54993 | 29807 ft | 502 kts | 239° |
| 2026-05-05 16:43 | 12.03645 | 48.48851 | 29811 ft | 503 kts | 239° |
| 2026-05-05 16:44 | 12.00169 | 48.42701 | 29812 ft | 504 kts | 240° |
| 2026-05-05 16:44 | 11.96653 | 48.36485 | 29814 ft | 505 kts | 240° |
| 2026-05-05 16:45 | 11.93158 | 48.30314 | 29813 ft | 503 kts | 240° |
| 2026-05-05 16:45 | 11.89641 | 48.24113 | 29823 ft | 504 kts | 240° |
| 2026-05-05 16:46 | 11.86130 | 48.17927 | 29827 ft | 504 kts | 240° |
| 2026-05-05 16:46 | 11.82626 | 48.11756 | 29837 ft | 505 kts | 240° |
| 2026-05-05 16:47 | 11.79092 | 48.05540 | 29848 ft | 504 kts | 240° |
| 2026-05-05 16:47 | 11.75562 | 47.99332 | 29845 ft | 505 kts | 240° |
| 2026-05-05 16:48 | 11.72042 | 47.93148 | 29846 ft | 504 kts | 240° |
| 2026-05-05 16:48 | 11.68531 | 47.86983 | 29843 ft | 505 kts | 240° |
| 2026-05-05 16:49 | 11.64990 | 47.80770 | 29839 ft | 504 kts | 240° |
| 2026-05-05 16:49 | 11.61485 | 47.74623 | 29855 ft | 504 kts | 240° |
| 2026-05-05 16:50 | 11.57968 | 47.68459 | 29842 ft | 503 kts | 240° |
| 2026-05-05 16:50 | 11.54446 | 47.62291 | 29846 ft | 503 kts | 240° |
| 2026-05-05 16:51 | 11.50913 | 47.56107 | 29833 ft | 502 kts | 240° |
| 2026-05-05 16:51 | 11.47415 | 47.49989 | 29834 ft | 502 kts | 240° |
| 2026-05-05 16:52 | 11.43901 | 47.43845 | 29835 ft | 503 kts | 240° |
| 2026-05-05 16:52 | 11.40376 | 47.37687 | 29828 ft | 503 kts | 240° |
| 2026-05-05 16:53 | 11.36859 | 47.31545 | 29821 ft | 501 kts | 240° |
| 2026-05-05 16:53 | 11.33349 | 47.25417 | 29827 ft | 501 kts | 240° |
| 2026-05-05 16:54 | 11.29818 | 47.19256 | 29823 ft | 501 kts | 240° |
| 2026-05-05 16:54 | 11.26313 | 47.13143 | 29818 ft | 501 kts | 240° |
| 2026-05-05 16:55 | 11.22808 | 47.07033 | 29817 ft | 502 kts | 240° |
| 2026-05-05 16:55 | 11.19285 | 47.00896 | 29808 ft | 500 kts | 240° |
| 2026-05-05 16:56 | 11.15777 | 46.94789 | 29812 ft | 502 kts | 240° |
| 2026-05-05 16:56 | 11.12255 | 46.88662 | 29808 ft | 501 kts | 240° |
| 2026-05-05 16:57 | 11.08748 | 46.82564 | 29808 ft | 500 kts | 240° |
| 2026-05-05 16:57 | 11.05240 | 46.76468 | 29807 ft | 500 kts | 240° |
| 2026-05-05 16:58 | 11.01717 | 46.70350 | 29809 ft | 500 kts | 240° |
| 2026-05-05 16:58 | 10.98217 | 46.64276 | 29809 ft | 500 kts | 240° |
| 2026-05-05 16:59 | 10.94702 | 46.58177 | 29815 ft | 500 kts | 240° |
| 2026-05-05 16:59 | 10.91192 | 46.52092 | 29798 ft | 499 kts | 240° |
| 2026-05-05 17:00 | 10.87671 | 46.45991 | 29816 ft | 499 kts | 240° |
| 2026-05-05 17:00 | 10.84156 | 46.39904 | 29816 ft | 499 kts | 240° |
| 2026-05-05 17:01 | 10.80689 | 46.33904 | 29824 ft | 500 kts | 240° |
| 2026-05-05 17:01 | 10.77278 | 46.27918 | 29820 ft | 500 kts | 240° |
| 2026-05-05 17:02 | 10.73755 | 46.21685 | 29822 ft | 501 kts | 240° |
| 2026-05-05 17:02 | 10.70275 | 46.15535 | 29849 ft | 500 kts | 240° |
| 2026-05-05 17:03 | 10.66803 | 46.09407 | 29870 ft | 499 kts | 240° |
| 2026-05-05 17:03 | 10.63352 | 46.03319 | 29899 ft | 499 kts | 240° |
| 2026-05-05 17:04 | 10.59880 | 45.97200 | 29919 ft | 500 kts | 240° |
| 2026-05-05 17:04 | 10.56417 | 45.91100 | 29946 ft | 501 kts | 240° |
| 2026-05-05 17:05 | 10.52949 | 45.84995 | 29944 ft | 499 kts | 240° |
| 2026-05-05 17:05 | 10.49463 | 45.78862 | 29943 ft | 499 kts | 240° |
| 2026-05-05 17:06 | 10.46002 | 45.72776 | 29926 ft | 499 kts | 240° |
| 2026-05-05 17:06 | 10.42533 | 45.66679 | 29917 ft | 499 kts | 240° |
| 2026-05-05 17:07 | 10.39061 | 45.60582 | 29920 ft | 499 kts | 240° |
| 2026-05-05 17:07 | 10.35580 | 45.54471 | 29934 ft | 500 kts | 240° |
| 2026-05-05 17:08 | 10.32095 | 45.48357 | 29941 ft | 500 kts | 240° |
| 2026-05-05 17:08 | 10.28618 | 45.42260 | 29949 ft | 499 kts | 240° |
| 2026-05-05 17:09 | 10.25153 | 45.36187 | 29971 ft | 500 kts | 240° |
| 2026-05-05 17:09 | 10.21669 | 45.30085 | 29963 ft | 499 kts | 239° |
| 2026-05-05 17:10 | 10.18173 | 45.23965 | 29989 ft | 500 kts | 239° |
| 2026-05-05 17:10 | 10.14695 | 45.17880 | 30027 ft | 499 kts | 239° |
| 2026-05-05 17:11 | 10.11206 | 45.11779 | 30070 ft | 498 kts | 239° |
| 2026-05-05 17:11 | 10.07728 | 45.05700 | 30127 ft | 499 kts | 239° |
| 2026-05-05 17:12 | 10.04255 | 44.99633 | 30172 ft | 499 kts | 239° |
| 2026-05-05 17:12 | 10.00760 | 44.93532 | 30192 ft | 499 kts | 239° |
| 2026-05-05 17:13 | 9.97288 | 44.87472 | 30164 ft | 499 kts | 239° |
| 2026-05-05 17:13 | 9.93804 | 44.81396 | 30128 ft | 499 kts | 239° |
| 2026-05-05 17:14 | 9.90303 | 44.75294 | 30100 ft | 500 kts | 239° |
| 2026-05-05 17:14 | 9.86815 | 44.69217 | 30103 ft | 499 kts | 239° |
| 2026-05-05 17:15 | 9.83383 | 44.63240 | 30117 ft | 500 kts | 239° |
| 2026-05-05 17:15 | 9.79886 | 44.57155 | 30128 ft | 499 kts | 239° |
| 2026-05-05 17:16 | 9.76413 | 44.51113 | 30133 ft | 500 kts | 239° |
| 2026-05-05 17:16 | 9.72921 | 44.45042 | 30131 ft | 500 kts | 240° |
| 2026-05-05 17:17 | 9.69406 | 44.38934 | 30124 ft | 501 kts | 240° |
| 2026-05-05 17:17 | 9.65897 | 44.32840 | 30119 ft | 500 kts | 240° |
| 2026-05-05 17:18 | 9.62411 | 44.26789 | 30120 ft | 501 kts | 240° |
| 2026-05-05 17:18 | 9.59039 | 44.20938 | 30126 ft | 501 kts | 240° |
| 2026-05-05 17:19 | 9.55537 | 44.14863 | 30146 ft | 499 kts | 240° |
| 2026-05-05 17:19 | 9.51909 | 44.08828 | 30150 ft | 500 kts | 233° |
| 2026-05-05 17:20 | 9.47608 | 44.03334 | 30176 ft | 500 kts | 231° |
| 2026-05-05 17:20 | 9.43235 | 43.97853 | 30179 ft | 499 kts | 231° |
| 2026-05-05 17:21 | 9.38860 | 43.92370 | 30184 ft | 500 kts | 231° |
| 2026-05-05 17:22 | 9.32335 | 43.84196 | 30189 ft | 500 kts | 231° |
| 2026-05-05 17:22 | 9.27966 | 43.78725 | 30199 ft | 500 kts | 231° |
| 2026-05-05 17:23 | 9.23569 | 43.73238 | 30204 ft | 500 kts | 231° |
| 2026-05-05 17:23 | 9.19159 | 43.67802 | 30220 ft | 500 kts | 231° |
| 2026-05-05 17:24 | 9.14751 | 43.62371 | 30226 ft | 500 kts | 231° |
| 2026-05-05 17:24 | 9.10321 | 43.56913 | 30233 ft | 499 kts | 231° |
| 2026-05-05 17:25 | 9.05928 | 43.51501 | 30248 ft | 500 kts | 231° |
| 2026-05-05 17:25 | 9.01511 | 43.46063 | 30257 ft | 500 kts | 231° |
| 2026-05-05 17:26 | 8.97108 | 43.40642 | 30259 ft | 500 kts | 231° |
| 2026-05-05 17:26 | 8.92689 | 43.35206 | 30253 ft | 500 kts | 231° |
| 2026-05-05 17:27 | 8.88279 | 43.29781 | 30240 ft | 500 kts | 231° |
| 2026-05-05 17:27 | 8.83984 | 43.24501 | 30240 ft | 500 kts | 231° |
| 2026-05-05 17:28 | 8.79580 | 43.19088 | 30224 ft | 501 kts | 231° |
| 2026-05-05 17:28 | 8.75263 | 43.13784 | 30226 ft | 500 kts | 231° |
| 2026-05-05 17:29 | 8.70835 | 43.08347 | 30213 ft | 500 kts | 231° |
| 2026-05-05 17:29 | 8.66399 | 43.02903 | 30205 ft | 501 kts | 231° |
| 2026-05-05 17:30 | 8.61937 | 42.97427 | 30190 ft | 501 kts | 231° |
| 2026-05-05 17:30 | 8.57514 | 42.92003 | 30187 ft | 501 kts | 231° |
| 2026-05-05 17:31 | 8.53072 | 42.86557 | 30179 ft | 502 kts | 231° |
| 2026-05-05 17:31 | 8.48624 | 42.81106 | 30169 ft | 501 kts | 231° |
| 2026-05-05 17:32 | 8.44194 | 42.75679 | 30163 ft | 502 kts | 231° |
| 2026-05-05 17:32 | 8.39768 | 42.70260 | 30161 ft | 502 kts | 231° |
| 2026-05-05 17:33 | 8.35313 | 42.64807 | 30163 ft | 502 kts | 231° |
| 2026-05-05 17:33 | 8.30876 | 42.59378 | 30160 ft | 502 kts | 231° |
| 2026-05-05 17:34 | 8.26437 | 42.53949 | 30172 ft | 501 kts | 231° |
| 2026-05-05 17:34 | 8.21993 | 42.48517 | 30164 ft | 503 kts | 231° |
| 2026-05-05 17:35 | 8.17531 | 42.43071 | 30143 ft | 502 kts | 231° |
| 2026-05-05 17:35 | 8.13072 | 42.37630 | 30134 ft | 502 kts | 231° |
| 2026-05-05 17:36 | 8.08649 | 42.32235 | 30120 ft | 502 kts | 231° |
| 2026-05-05 17:36 | 8.04178 | 42.26785 | 30114 ft | 503 kts | 231° |
| 2026-05-05 17:37 | 7.99706 | 42.21334 | 30102 ft | 503 kts | 231° |
| 2026-05-05 17:37 | 7.95223 | 42.15873 | 30094 ft | 503 kts | 231° |
| 2026-05-05 17:38 | 7.90773 | 42.10454 | 30088 ft | 503 kts | 231° |
| 2026-05-05 17:38 | 7.86306 | 42.05017 | 30072 ft | 504 kts | 231° |
| 2026-05-05 17:39 | 7.81799 | 41.99531 | 30064 ft | 503 kts | 231° |
| 2026-05-05 17:39 | 7.77316 | 41.94078 | 30063 ft | 503 kts | 231° |
| 2026-05-05 17:40 | 7.72774 | 41.88554 | 30063 ft | 504 kts | 231° |
| 2026-05-05 17:40 | 7.68281 | 41.83096 | 30067 ft | 504 kts | 231° |
| 2026-05-05 17:41 | 7.63807 | 41.77671 | 30079 ft | 503 kts | 231° |
| 2026-05-05 17:41 | 7.59328 | 41.72242 | 30087 ft | 503 kts | 231° |
| 2026-05-05 17:42 | 7.54862 | 41.66832 | 30095 ft | 503 kts | 231° |
| 2026-05-05 17:42 | 7.50392 | 41.61418 | 30096 ft | 502 kts | 231° |
| 2026-05-05 17:43 | 7.45920 | 41.56003 | 30090 ft | 502 kts | 231° |
| 2026-05-05 17:43 | 7.41435 | 41.50575 | 30100 ft | 502 kts | 231° |
| 2026-05-05 17:44 | 7.36958 | 41.45159 | 30112 ft | 503 kts | 231° |
| 2026-05-05 17:44 | 7.32502 | 41.39769 | 30116 ft | 503 kts | 231° |
| 2026-05-05 17:45 | 7.28024 | 41.34354 | 30129 ft | 502 kts | 231° |
| 2026-05-05 17:45 | 7.23551 | 41.28941 | 30139 ft | 501 kts | 231° |
| 2026-05-05 17:46 | 7.19127 | 41.23434 | 30155 ft | 501 kts | 232° |
| 2026-05-05 17:46 | 7.14712 | 41.17932 | 30152 ft | 502 kts | 232° |
| 2026-05-05 17:47 | 7.10290 | 41.12428 | 30159 ft | 502 kts | 232° |
| 2026-05-05 17:47 | 7.05914 | 41.06985 | 30165 ft | 502 kts | 232° |
| 2026-05-05 17:48 | 7.01524 | 41.01528 | 30157 ft | 501 kts | 232° |
| 2026-05-05 17:48 | 6.97146 | 40.96090 | 30180 ft | 499 kts | 232° |
| 2026-05-05 17:49 | 6.92789 | 40.90679 | 30181 ft | 500 kts | 232° |
| 2026-05-05 17:49 | 6.88423 | 40.85258 | 30181 ft | 500 kts | 232° |
| 2026-05-05 17:50 | 6.84045 | 40.79824 | 30237 ft | 500 kts | 232° |
| 2026-05-05 17:50 | 6.79796 | 40.74554 | 30232 ft | 500 kts | 232° |
| 2026-05-05 17:51 | 6.75393 | 40.69092 | 30235 ft | 500 kts | 232° |
| 2026-05-05 17:51 | 6.71009 | 40.63657 | 30276 ft | 499 kts | 232° |
| 2026-05-05 17:52 | 6.66622 | 40.58219 | 30252 ft | 499 kts | 232° |
| 2026-05-05 17:52 | 6.62227 | 40.52774 | 30262 ft | 499 kts | 232° |
| 2026-05-05 17:53 | 6.57868 | 40.47375 | 30270 ft | 498 kts | 232° |
| 2026-05-05 17:53 | 6.53485 | 40.41947 | 30238 ft | 499 kts | 232° |
| 2026-05-05 17:54 | 6.49100 | 40.36519 | 30207 ft | 500 kts | 232° |
| 2026-05-05 17:54 | 6.44724 | 40.31105 | 30231 ft | 499 kts | 232° |
| 2026-05-05 17:55 | 6.40325 | 40.25662 | 30227 ft | 500 kts | 232° |
| 2026-05-05 17:55 | 6.36145 | 40.20493 | 30222 ft | 498 kts | 232° |
| 2026-05-05 17:56 | 6.31733 | 40.15038 | 30198 ft | 499 kts | 232° |
| 2026-05-05 17:56 | 6.27339 | 40.09607 | 30205 ft | 499 kts | 231° |
| 2026-05-05 17:57 | 6.22964 | 40.04201 | 30214 ft | 499 kts | 231° |
| 2026-05-05 17:57 | 6.18347 | 39.99003 | 30234 ft | 500 kts | 227° |
| 2026-05-05 17:58 | 6.13577 | 39.93888 | 30185 ft | 499 kts | 227° |
| 2026-05-05 17:58 | 6.08846 | 39.88789 | 30209 ft | 499 kts | 227° |
| 2026-05-05 17:59 | 6.04140 | 39.83702 | 30195 ft | 498 kts | 227° |
| 2026-05-05 17:59 | 5.99405 | 39.78576 | 30165 ft | 499 kts | 227° |
| 2026-05-05 18:00 | 5.94700 | 39.73480 | 30185 ft | 499 kts | 228° |
| 2026-05-05 18:00 | 5.89981 | 39.68367 | 30202 ft | 500 kts | 228° |
| 2026-05-05 18:01 | 5.85504 | 39.63071 | 30216 ft | 499 kts | 231° |
| 2026-05-05 18:01 | 5.81236 | 39.57922 | 30209 ft | 500 kts | 231° |
| 2026-05-05 18:02 | 5.76731 | 39.52507 | 30199 ft | 500 kts | 231° |
| 2026-05-05 18:02 | 5.72275 | 39.47165 | 30204 ft | 498 kts | 231° |
| 2026-05-05 18:03 | 5.68058 | 39.42116 | 30223 ft | 498 kts | 231° |
| 2026-05-05 18:03 | 5.63557 | 39.36732 | 30225 ft | 498 kts | 231° |
| 2026-05-05 18:04 | 5.59114 | 39.31424 | 30229 ft | 497 kts | 231° |
| 2026-05-05 18:04 | 5.54657 | 39.26102 | 30223 ft | 497 kts | 231° |
| 2026-05-05 18:05 | 5.50380 | 39.20997 | 30210 ft | 497 kts | 231° |
| 2026-05-05 18:05 | 5.45926 | 39.15681 | 30209 ft | 498 kts | 231° |
| 2026-05-05 18:06 | 5.41491 | 39.10391 | 30224 ft | 496 kts | 231° |
| 2026-05-05 18:06 | 5.37040 | 39.05082 | 30217 ft | 498 kts | 231° |
| 2026-05-05 18:07 | 5.32562 | 38.99742 | 30212 ft | 498 kts | 231° |
| 2026-05-05 18:07 | 5.28099 | 38.94421 | 30203 ft | 499 kts | 230° |
| 2026-05-05 18:08 | 5.23612 | 38.89074 | 30184 ft | 499 kts | 231° |
| 2026-05-05 18:08 | 5.19119 | 38.83721 | 30185 ft | 500 kts | 231° |
| 2026-05-05 18:09 | 5.14660 | 38.78410 | 30195 ft | 500 kts | 231° |
| 2026-05-05 18:09 | 5.10152 | 38.73040 | 30201 ft | 501 kts | 230° |
| 2026-05-05 18:10 | 5.05652 | 38.67683 | 30207 ft | 501 kts | 230° |
| 2026-05-05 18:10 | 5.01177 | 38.62356 | 30221 ft | 501 kts | 230° |
| 2026-05-05 18:11 | 4.96685 | 38.57010 | 30216 ft | 501 kts | 230° |
| 2026-05-05 18:11 | 4.92193 | 38.51666 | 30224 ft | 500 kts | 230° |
| 2026-05-05 18:12 | 4.87718 | 38.46343 | 30232 ft | 500 kts | 230° |
| 2026-05-05 18:12 | 4.83224 | 38.40997 | 30236 ft | 502 kts | 230° |
| 2026-05-05 18:13 | 4.78688 | 38.35604 | 30246 ft | 501 kts | 230° |
| 2026-05-05 18:13 | 4.74139 | 38.30197 | 30247 ft | 501 kts | 230° |
| 2026-05-05 18:14 | 4.69664 | 38.24878 | 30247 ft | 500 kts | 230° |
| 2026-05-05 18:14 | 4.65140 | 38.19503 | 30239 ft | 499 kts | 230° |
| 2026-05-05 18:15 | 4.60627 | 38.14142 | 30224 ft | 501 kts | 230° |
| 2026-05-05 18:15 | 4.56121 | 38.08790 | 30217 ft | 502 kts | 230° |
| 2026-05-05 18:16 | 4.51589 | 38.03409 | 30200 ft | 502 kts | 230° |
| 2026-05-05 18:16 | 4.47099 | 37.98078 | 30198 ft | 502 kts | 230° |
| 2026-05-05 18:17 | 4.42586 | 37.92721 | 30197 ft | 501 kts | 230° |
| 2026-05-05 18:17 | 4.38109 | 37.87409 | 30188 ft | 500 kts | 230° |
| 2026-05-05 18:18 | 4.33607 | 37.82068 | 30184 ft | 502 kts | 230° |
| 2026-05-05 18:18 | 4.29126 | 37.76753 | 30160 ft | 502 kts | 230° |
| 2026-05-05 18:19 | 4.24613 | 37.71400 | 30148 ft | 502 kts | 230° |
| 2026-05-05 18:19 | 4.20113 | 37.66065 | 30116 ft | 501 kts | 230° |
| 2026-05-05 18:20 | 4.15626 | 37.60744 | 30093 ft | 500 kts | 230° |
| 2026-05-05 18:20 | 4.11129 | 37.55415 | 30059 ft | 500 kts | 230° |
| 2026-05-05 18:21 | 4.06644 | 37.50100 | 30052 ft | 500 kts | 230° |
| 2026-05-05 18:21 | 4.02150 | 37.44775 | 30042 ft | 500 kts | 230° |
| 2026-05-05 18:22 | 3.97966 | 37.39164 | 30093 ft | 505 kts | 238° |
| 2026-05-05 18:22 | 3.96083 | 37.36187 | 30542 ft | 505 kts | 238° |
| 2026-05-05 18:22 | 3.94240 | 37.33264 | 31241 ft | 499 kts | 238° |
| 2026-05-05 18:22 | 3.92392 | 37.30335 | 31867 ft | 494 kts | 238° |
| 2026-05-05 18:23 | 3.90524 | 37.27374 | 32005 ft | 498 kts | 238° |
| 2026-05-05 18:23 | 3.86968 | 37.21742 | 32002 ft | 495 kts | 238° |
| 2026-05-05 18:24 | 3.83280 | 37.15906 | 31999 ft | 494 kts | 238° |
| 2026-05-05 18:24 | 3.79737 | 37.10300 | 32000 ft | 494 kts | 238° |
| 2026-05-05 18:25 | 3.76077 | 37.04511 | 31996 ft | 493 kts | 238° |
| 2026-05-05 18:25 | 3.72556 | 36.98944 | 31998 ft | 493 kts | 238° |
| 2026-05-05 18:26 | 3.68879 | 36.93131 | 31989 ft | 494 kts | 238° |
| 2026-05-05 18:26 | 3.65218 | 36.87345 | 31986 ft | 495 kts | 238° |
| 2026-05-05 18:27 | 3.61513 | 36.81490 | 31980 ft | 495 kts | 238° |
| 2026-05-05 18:27 | 3.57859 | 36.75717 | 31984 ft | 494 kts | 238° |
| 2026-05-05 18:28 | 3.52334 | 36.66991 | 31981 ft | 493 kts | 238° |
| 2026-05-05 18:28 | 3.48672 | 36.61206 | 31975 ft | 494 kts | 238° |
| 2026-05-05 18:29 | 3.44999 | 36.55409 | 31983 ft | 494 kts | 238° |
| 2026-05-05 18:29 | 3.41317 | 36.49594 | 31982 ft | 494 kts | 238° |
| 2026-05-05 18:30 | 3.37631 | 36.43777 | 31977 ft | 494 kts | 238° |
| 2026-05-05 18:30 | 3.33956 | 36.37978 | 31971 ft | 493 kts | 238° |
| 2026-05-05 18:31 | 3.30277 | 36.32173 | 31953 ft | 494 kts | 238° |
| 2026-05-05 18:31 | 3.26599 | 36.26370 | 31935 ft | 493 kts | 238° |
| 2026-05-05 18:32 | 3.23068 | 36.20801 | 31920 ft | 494 kts | 238° |
| 2026-05-05 18:32 | 3.19381 | 36.14985 | 31921 ft | 493 kts | 238° |
| 2026-05-05 18:33 | 3.15718 | 36.09210 | 31915 ft | 493 kts | 238° |
| 2026-05-05 18:33 | 3.12032 | 36.03399 | 31918 ft | 493 kts | 238° |
| 2026-05-05 18:34 | 3.08364 | 35.97617 | 31919 ft | 492 kts | 238° |
| 2026-05-05 18:34 | 3.04709 | 35.91857 | 31926 ft | 492 kts | 238° |
| 2026-05-05 18:35 | 3.01037 | 35.86070 | 31925 ft | 493 kts | 238° |
| 2026-05-05 18:35 | 2.97375 | 35.80300 | 31937 ft | 493 kts | 238° |
| 2026-05-05 18:36 | 2.93706 | 35.74520 | 31940 ft | 493 kts | 238° |
| 2026-05-05 18:36 | 2.90016 | 35.68708 | 31952 ft | 494 kts | 238° |
| 2026-05-05 18:37 | 2.86329 | 35.62901 | 31958 ft | 493 kts | 238° |
| 2026-05-05 18:37 | 2.82647 | 35.57102 | 31978 ft | 494 kts | 238° |
| 2026-05-05 18:38 | 2.78934 | 35.51257 | 32015 ft | 494 kts | 238° |
| 2026-05-05 18:38 | 2.75263 | 35.45478 | 32025 ft | 493 kts | 238° |
| 2026-05-05 18:39 | 2.71555 | 35.39641 | 32037 ft | 495 kts | 238° |
| 2026-05-05 18:39 | 2.67863 | 35.33832 | 32043 ft | 495 kts | 238° |
| 2026-05-05 18:40 | 2.64189 | 35.28050 | 32043 ft | 494 kts | 238° |
| 2026-05-05 18:40 | 2.60495 | 35.22237 | 32053 ft | 495 kts | 238° |
| 2026-05-05 18:41 | 2.56783 | 35.16397 | 32078 ft | 495 kts | 238° |
| 2026-05-05 18:41 | 2.53091 | 35.10591 | 32104 ft | 495 kts | 238° |
| 2026-05-05 18:42 | 2.49395 | 35.04777 | 32112 ft | 494 kts | 238° |
| 2026-05-05 18:42 | 2.45891 | 34.98932 | 32126 ft | 493 kts | 246° |
| 2026-05-05 18:43 | 2.43871 | 34.92415 | 32191 ft | 492 kts | 260° |
| 2026-05-05 18:43 | 2.42614 | 34.85674 | 32234 ft | 493 kts | 260° |
| 2026-05-05 18:44 | 2.41376 | 34.78958 | 32267 ft | 492 kts | 260° |
| 2026-05-05 18:44 | 2.40143 | 34.72260 | 32292 ft | 493 kts | 260° |
| 2026-05-05 18:45 | 2.38898 | 34.65502 | 32245 ft | 492 kts | 260° |
| 2026-05-05 18:45 | 2.37663 | 34.58793 | 32206 ft | 493 kts | 260° |
| 2026-05-05 18:46 | 2.36431 | 34.52107 | 32166 ft | 493 kts | 260° |
| 2026-05-05 18:46 | 2.35186 | 34.45351 | 32133 ft | 492 kts | 260° |
| 2026-05-05 18:47 | 2.33953 | 34.38661 | 32126 ft | 493 kts | 260° |
| 2026-05-05 18:47 | 2.32709 | 34.31912 | 32121 ft | 493 kts | 260° |
| 2026-05-05 18:48 | 2.31469 | 34.25187 | 32110 ft | 493 kts | 260° |
| 2026-05-05 18:48 | 2.30263 | 34.18652 | 32109 ft | 494 kts | 260° |
| 2026-05-05 18:49 | 2.29020 | 34.11912 | 32101 ft | 494 kts | 260° |
| 2026-05-05 18:49 | 2.27768 | 34.05128 | 32099 ft | 494 kts | 260° |
| 2026-05-05 18:50 | 2.26529 | 33.98416 | 32094 ft | 494 kts | 260° |
| 2026-05-05 18:50 | 2.25285 | 33.91680 | 32094 ft | 494 kts | 260° |
| 2026-05-05 18:51 | 2.24033 | 33.84904 | 32092 ft | 494 kts | 260° |
| 2026-05-05 18:51 | 2.22789 | 33.78168 | 32084 ft | 495 kts | 260° |
| 2026-05-05 18:52 | 2.21544 | 33.71437 | 32084 ft | 495 kts | 260° |
| 2026-05-05 18:52 | 2.20297 | 33.64689 | 32085 ft | 494 kts | 260° |
| 2026-05-05 18:53 | 2.19055 | 33.57973 | 32082 ft | 494 kts | 260° |
| 2026-05-05 18:53 | 2.17809 | 33.51241 | 32084 ft | 493 kts | 260° |
| 2026-05-05 18:54 | 2.16561 | 33.44494 | 32085 ft | 494 kts | 261° |
| 2026-05-05 18:54 | 2.15318 | 33.37774 | 32090 ft | 494 kts | 261° |
| 2026-05-05 18:55 | 2.14065 | 33.31008 | 32091 ft | 494 kts | 261° |
| 2026-05-05 18:55 | 2.12817 | 33.24269 | 32095 ft | 492 kts | 261° |
| 2026-05-05 18:56 | 2.11567 | 33.17518 | 32093 ft | 493 kts | 261° |
| 2026-05-05 18:56 | 2.10319 | 33.10785 | 32083 ft | 492 kts | 261° |
| 2026-05-05 18:57 | 2.09067 | 33.04027 | 32080 ft | 493 kts | 261° |
| 2026-05-05 18:57 | 2.07813 | 32.97257 | 32076 ft | 494 kts | 260° |
| 2026-05-05 18:58 | 2.06563 | 32.90516 | 32075 ft | 494 kts | 260° |
| 2026-05-05 18:58 | 2.05318 | 32.83805 | 32078 ft | 495 kts | 260° |
| 2026-05-05 18:59 | 2.04069 | 32.77070 | 32074 ft | 494 kts | 260° |
| 2026-05-05 18:59 | 2.02818 | 32.70324 | 32071 ft | 495 kts | 260° |
| 2026-05-05 19:00 | 2.01560 | 32.63549 | 32072 ft | 495 kts | 260° |
| 2026-05-05 19:00 | 2.00311 | 32.56817 | 32075 ft | 495 kts | 259° |
| 2026-05-05 19:01 | 1.99058 | 32.50070 | 32073 ft | 494 kts | 260° |
| 2026-05-05 19:01 | 1.97809 | 32.43343 | 32075 ft | 494 kts | 260° |
| 2026-05-05 19:02 | 1.96558 | 32.36607 | 32080 ft | 494 kts | 259° |
| 2026-05-05 19:02 | 1.95299 | 32.29832 | 32080 ft | 493 kts | 259° |
| 2026-05-05 19:03 | 1.94083 | 32.23289 | 32084 ft | 492 kts | 259° |
| 2026-05-05 19:03 | 1.92875 | 32.16791 | 32085 ft | 492 kts | 259° |
| 2026-05-05 19:04 | 1.91624 | 32.10066 | 32087 ft | 492 kts | 259° |
| 2026-05-05 19:04 | 1.90623 | 32.03268 | 32088 ft | 492 kts | 264° |
| 2026-05-05 19:05 | 1.89894 | 31.96469 | 32089 ft | 491 kts | 264° |
| 2026-05-05 19:05 | 1.89149 | 31.89709 | 32088 ft | 491 kts | 263° |
| 2026-05-05 19:06 | 1.88385 | 31.82898 | 32085 ft | 490 kts | 263° |
| 2026-05-05 19:06 | 1.87603 | 31.75998 | 32091 ft | 492 kts | 263° |
| 2026-05-05 19:07 | 1.86829 | 31.69196 | 32082 ft | 492 kts | 263° |
| 2026-05-05 19:07 | 1.86054 | 31.62412 | 32077 ft | 492 kts | 263° |
| 2026-05-05 19:08 | 1.85257 | 31.55451 | 32077 ft | 492 kts | 263° |
| 2026-05-05 19:08 | 1.84476 | 31.48634 | 32070 ft | 493 kts | 263° |
| 2026-05-05 19:09 | 1.83700 | 31.41864 | 32065 ft | 493 kts | 263° |
| 2026-05-05 19:09 | 1.82923 | 31.35083 | 32065 ft | 493 kts | 263° |
| 2026-05-05 19:10 | 1.82145 | 31.28307 | 32058 ft | 493 kts | 263° |
| 2026-05-05 19:10 | 1.81358 | 31.21455 | 32059 ft | 494 kts | 263° |
| 2026-05-05 19:11 | 1.80559 | 31.14496 | 32056 ft | 493 kts | 263° |
| 2026-05-05 19:11 | 1.79773 | 31.07653 | 32068 ft | 492 kts | 263° |
| 2026-05-05 19:12 | 1.78978 | 31.00862 | 32059 ft | 493 kts | 261° |
| 2026-05-05 19:12 | 1.77300 | 30.94217 | 32066 ft | 493 kts | 253° |
| 2026-05-05 19:13 | 1.75393 | 30.87664 | 32065 ft | 495 kts | 253° |
| 2026-05-05 19:13 | 1.73477 | 30.81073 | 32061 ft | 495 kts | 253° |
| 2026-05-05 19:14 | 1.71566 | 30.74495 | 32060 ft | 494 kts | 253° |
| 2026-05-05 19:14 | 1.69646 | 30.67885 | 32083 ft | 495 kts | 253° |
| 2026-05-05 19:15 | 1.67739 | 30.61318 | 32103 ft | 495 kts | 253° |
| 2026-05-05 19:15 | 1.65827 | 30.54736 | 32130 ft | 493 kts | 253° |
| 2026-05-05 19:16 | 1.63909 | 30.48129 | 32152 ft | 493 kts | 253° |
| 2026-05-05 19:16 | 1.61999 | 30.41556 | 32140 ft | 493 kts | 253° |
| 2026-05-05 19:17 | 1.60101 | 30.35023 | 32137 ft | 492 kts | 253° |
| 2026-05-05 19:17 | 1.58193 | 30.28454 | 32137 ft | 493 kts | 253° |
| 2026-05-05 19:18 | 1.56299 | 30.21923 | 32148 ft | 491 kts | 255° |
| 2026-05-05 19:18 | 1.54854 | 30.15212 | 32121 ft | 491 kts | 258° |
| 2026-05-05 19:19 | 1.53472 | 30.08503 | 32100 ft | 492 kts | 258° |
| 2026-05-05 19:19 | 1.52076 | 30.01826 | 32081 ft | 491 kts | 257° |
| 2026-05-05 19:20 | 1.50674 | 29.95175 | 32073 ft | 491 kts | 257° |
| 2026-05-05 19:20 | 1.49255 | 29.88472 | 32069 ft | 492 kts | 257° |
| 2026-05-05 19:21 | 1.47845 | 29.81823 | 32067 ft | 491 kts | 257° |
| 2026-05-05 19:21 | 1.46425 | 29.75142 | 32064 ft | 491 kts | 257° |
| 2026-05-05 19:22 | 1.45006 | 29.68466 | 32057 ft | 492 kts | 257° |
| 2026-05-05 19:22 | 1.43592 | 29.61820 | 32060 ft | 493 kts | 257° |
| 2026-05-05 19:23 | 1.42161 | 29.55106 | 32052 ft | 493 kts | 257° |
| 2026-05-05 19:23 | 1.40717 | 29.48426 | 32053 ft | 493 kts | 257° |
| 2026-05-05 19:24 | 1.39270 | 29.41730 | 32052 ft | 493 kts | 257° |
| 2026-05-05 19:24 | 1.37826 | 29.35047 | 32050 ft | 494 kts | 257° |
| 2026-05-05 19:25 | 1.36373 | 29.28326 | 32045 ft | 494 kts | 257° |
| 2026-05-05 19:25 | 1.34906 | 29.21536 | 32046 ft | 494 kts | 257° |
| 2026-05-05 19:26 | 1.33447 | 29.14787 | 32044 ft | 495 kts | 257° |
| 2026-05-05 19:26 | 1.31985 | 29.08024 | 32045 ft | 495 kts | 257° |
| 2026-05-05 19:27 | 1.30531 | 29.01300 | 32046 ft | 496 kts | 257° |
| 2026-05-05 19:27 | 1.29069 | 28.94623 | 32040 ft | 496 kts | 257° |
| 2026-05-05 19:28 | 1.27588 | 28.87902 | 32037 ft | 496 kts | 257° |
| 2026-05-05 19:28 | 1.26107 | 28.81184 | 32032 ft | 497 kts | 257° |
| 2026-05-05 19:29 | 1.24621 | 28.74437 | 32033 ft | 496 kts | 257° |
| 2026-05-05 19:29 | 1.23144 | 28.67730 | 32031 ft | 495 kts | 257° |
| 2026-05-05 19:30 | 1.21670 | 28.61041 | 32030 ft | 496 kts | 257° |
| 2026-05-05 19:30 | 1.20185 | 28.54300 | 32028 ft | 496 kts | 258° |
| 2026-05-05 19:31 | 1.18712 | 28.47615 | 32024 ft | 494 kts | 258° |
| 2026-05-05 19:31 | 1.17239 | 28.40928 | 32025 ft | 493 kts | 258° |
| 2026-05-05 19:32 | 1.15774 | 28.34276 | 32034 ft | 492 kts | 258° |
| 2026-05-05 19:32 | 1.14299 | 28.27584 | 32038 ft | 491 kts | 258° |
| 2026-05-05 19:33 | 1.12819 | 28.20869 | 32041 ft | 490 kts | 258° |
| 2026-05-05 19:33 | 1.11357 | 28.14240 | 32047 ft | 489 kts | 258° |
| 2026-05-05 19:34 | 1.09897 | 28.07615 | 32049 ft | 488 kts | 258° |
| 2026-05-05 19:35 | 1.07712 | 27.97703 | 32050 ft | 490 kts | 258° |
| 2026-05-05 19:35 | 1.06249 | 27.91068 | 32048 ft | 490 kts | 258° |
| 2026-05-05 19:36 | 1.04785 | 27.84433 | 32045 ft | 490 kts | 258° |
| 2026-05-05 19:36 | 1.03325 | 27.77811 | 32043 ft | 489 kts | 258° |
| 2026-05-05 19:37 | 1.01863 | 27.71186 | 32038 ft | 490 kts | 258° |
| 2026-05-05 19:37 | 1.00392 | 27.64518 | 32034 ft | 491 kts | 258° |
| 2026-05-05 19:38 | 0.98924 | 27.57864 | 32022 ft | 492 kts | 258° |
| 2026-05-05 19:38 | 0.97465 | 27.51213 | 32009 ft | 492 kts | 258° |
| 2026-05-05 19:39 | 0.96015 | 27.44514 | 32004 ft | 493 kts | 258° |
| 2026-05-05 19:39 | 0.94569 | 27.37842 | 31996 ft | 493 kts | 258° |
| 2026-05-05 19:40 | 0.93118 | 27.31149 | 31993 ft | 496 kts | 258° |
| 2026-05-05 19:40 | 0.91660 | 27.24428 | 31987 ft | 496 kts | 258° |
| 2026-05-05 19:41 | 0.90187 | 27.17636 | 31985 ft | 496 kts | 258° |
| 2026-05-05 19:41 | 0.88726 | 27.10902 | 31988 ft | 496 kts | 258° |
| 2026-05-05 19:42 | 0.87262 | 27.04153 | 31986 ft | 496 kts | 258° |
| 2026-05-05 19:42 | 0.85781 | 26.97330 | 31988 ft | 498 kts | 258° |
| 2026-05-05 19:43 | 0.84309 | 26.90548 | 31985 ft | 497 kts | 258° |
| 2026-05-05 19:43 | 0.82828 | 26.83722 | 31980 ft | 498 kts | 258° |
| 2026-05-05 19:44 | 0.81363 | 26.76972 | 31977 ft | 498 kts | 258° |
| 2026-05-05 19:44 | 0.79900 | 26.70235 | 31977 ft | 498 kts | 258° |
| 2026-05-05 19:45 | 0.78443 | 26.63522 | 31972 ft | 498 kts | 258° |
| 2026-05-05 19:45 | 0.76975 | 26.56764 | 31976 ft | 499 kts | 258° |
| 2026-05-05 19:46 | 0.75504 | 26.49987 | 31974 ft | 499 kts | 258° |
| 2026-05-05 19:46 | 0.74035 | 26.43223 | 31978 ft | 500 kts | 258° |
| 2026-05-05 19:47 | 0.72570 | 26.36478 | 31973 ft | 498 kts | 258° |
| 2026-05-05 19:47 | 0.71100 | 26.29707 | 31972 ft | 499 kts | 258° |
| 2026-05-05 19:48 | 0.69611 | 26.22854 | 31967 ft | 499 kts | 258° |
| 2026-05-05 19:48 | 0.68145 | 26.16104 | 31962 ft | 500 kts | 258° |
| 2026-05-05 19:49 | 0.66639 | 26.09228 | 31951 ft | 499 kts | 257° |
| 2026-05-05 19:49 | 0.65149 | 26.02463 | 31948 ft | 500 kts | 257° |
| 2026-05-05 19:50 | 0.63658 | 25.95689 | 31939 ft | 499 kts | 257° |
| 2026-05-05 19:50 | 0.62170 | 25.88931 | 31934 ft | 499 kts | 257° |
| 2026-05-05 19:51 | 0.60688 | 25.82198 | 31932 ft | 498 kts | 257° |
| 2026-05-05 19:51 | 0.59206 | 25.75464 | 31931 ft | 497 kts | 257° |
| 2026-05-05 19:52 | 0.57724 | 25.68732 | 31931 ft | 498 kts | 257° |
| 2026-05-05 19:52 | 0.56235 | 25.61969 | 31930 ft | 497 kts | 257° |
| 2026-05-05 19:53 | 0.54750 | 25.55222 | 31930 ft | 498 kts | 257° |
| 2026-05-05 19:53 | 0.53274 | 25.48519 | 31929 ft | 496 kts | 257° |
| 2026-05-05 19:54 | 0.51791 | 25.41784 | 31932 ft | 496 kts | 257° |
| 2026-05-05 19:54 | 0.50311 | 25.35060 | 31929 ft | 496 kts | 257° |
| 2026-05-05 19:55 | 0.48010 | 25.28607 | 31932 ft | 495 kts | 244° |
| 2026-05-05 19:55 | 0.45051 | 25.22609 | 31933 ft | 494 kts | 243° |
| 2026-05-05 19:56 | 0.41998 | 25.16453 | 31935 ft | 495 kts | 243° |
| 2026-05-05 19:56 | 0.38932 | 25.10266 | 31930 ft | 493 kts | 243° |
| 2026-05-05 19:57 | 0.35908 | 25.04165 | 31937 ft | 493 kts | 243° |
| 2026-05-05 19:57 | 0.32871 | 24.98038 | 31938 ft | 493 kts | 243° |
| 2026-05-05 19:58 | 0.29825 | 24.91893 | 31940 ft | 493 kts | 243° |
| 2026-05-05 19:58 | 0.26791 | 24.85770 | 31945 ft | 494 kts | 243° |
| 2026-05-05 19:59 | 0.23734 | 24.79602 | 31943 ft | 493 kts | 243° |
| 2026-05-05 19:59 | 0.20699 | 24.73478 | 31947 ft | 493 kts | 243° |
| 2026-05-05 20:00 | 0.17665 | 24.67357 | 31944 ft | 492 kts | 243° |
| 2026-05-05 20:00 | 0.14627 | 24.61228 | 31943 ft | 493 kts | 243° |
| 2026-05-05 20:01 | 0.11582 | 24.55092 | 31943 ft | 492 kts | 243° |
| 2026-05-05 20:01 | 0.08547 | 24.48990 | 31942 ft | 492 kts | 243° |
| 2026-05-05 20:02 | 0.05511 | 24.42890 | 31945 ft | 491 kts | 243° |
| 2026-05-05 20:02 | 0.02480 | 24.36796 | 31948 ft | 491 kts | 243° |
| 2026-05-05 20:03 | -0.00569 | 24.30666 | 31940 ft | 491 kts | 243° |
| 2026-05-05 20:03 | -0.03640 | 24.24491 | 31940 ft | 492 kts | 243° |
| 2026-05-05 20:04 | -0.06699 | 24.18344 | 31943 ft | 493 kts | 243° |
| 2026-05-05 20:04 | -0.09739 | 24.12230 | 31943 ft | 494 kts | 243° |
| 2026-05-05 20:05 | -0.12805 | 24.06067 | 31945 ft | 492 kts | 243° |
| 2026-05-05 20:05 | -0.15857 | 23.99931 | 31945 ft | 490 kts | 243° |
| 2026-05-05 20:06 | -0.18872 | 23.93868 | 31948 ft | 491 kts | 243° |
| 2026-05-05 20:06 | -0.21923 | 23.87734 | 31945 ft | 492 kts | 243° |
| 2026-05-05 20:07 | -0.24976 | 23.81597 | 31950 ft | 492 kts | 243° |
| 2026-05-05 20:07 | -0.28009 | 23.75498 | 31951 ft | 492 kts | 243° |
| 2026-05-05 20:08 | -0.31065 | 23.69353 | 31949 ft | 491 kts | 243° |
| 2026-05-05 20:08 | -0.34098 | 23.63257 | 31947 ft | 490 kts | 243° |
| 2026-05-05 20:09 | -0.37126 | 23.57168 | 31954 ft | 490 kts | 243° |
| 2026-05-05 20:09 | -0.40151 | 23.51085 | 31960 ft | 490 kts | 243° |
| 2026-05-05 20:10 | -0.43167 | 23.45022 | 31963 ft | 490 kts | 243° |
| 2026-05-05 20:10 | -0.46219 | 23.38899 | 31958 ft | 491 kts | 243° |
| 2026-05-05 20:11 | -0.49306 | 23.32800 | 31960 ft | 493 kts | 243° |
| 2026-05-05 20:11 | -0.52394 | 23.26699 | 31955 ft | 492 kts | 243° |
| 2026-05-05 20:12 | -0.55428 | 23.20701 | 31958 ft | 492 kts | 243° |
| 2026-05-05 20:12 | -0.58522 | 23.14584 | 31960 ft | 493 kts | 244° |
| 2026-05-05 20:13 | -0.61613 | 23.08470 | 31956 ft | 492 kts | 243° |
| 2026-05-05 20:13 | -0.64694 | 23.02376 | 31956 ft | 496 kts | 243° |
| 2026-05-05 20:14 | -0.67788 | 22.96255 | 31954 ft | 494 kts | 243° |
| 2026-05-05 20:14 | -0.70882 | 22.90135 | 31953 ft | 494 kts | 243° |
| 2026-05-05 20:15 | -0.73994 | 22.83978 | 31953 ft | 495 kts | 243° |
| 2026-05-05 20:15 | -0.77072 | 22.77889 | 31952 ft | 495 kts | 243° |
| 2026-05-05 20:16 | -0.80173 | 22.71755 | 31962 ft | 494 kts | 243° |
| 2026-05-05 20:16 | -0.83277 | 22.65613 | 31968 ft | 496 kts | 243° |
| 2026-05-05 20:17 | -0.86383 | 22.59467 | 31970 ft | 496 kts | 243° |
| 2026-05-05 20:17 | -0.89486 | 22.53327 | 31970 ft | 496 kts | 243° |
| 2026-05-05 20:18 | -0.92584 | 22.47195 | 31971 ft | 495 kts | 243° |
| 2026-05-05 20:18 | -0.95690 | 22.41050 | 31971 ft | 496 kts | 244° |
| 2026-05-05 20:19 | -0.98790 | 22.34914 | 31973 ft | 496 kts | 244° |
| 2026-05-05 20:19 | -1.01896 | 22.28768 | 31971 ft | 495 kts | 244° |
| 2026-05-05 20:20 | -1.05019 | 22.22587 | 31971 ft | 498 kts | 243° |
| 2026-05-05 20:20 | -1.08125 | 22.16439 | 31969 ft | 498 kts | 243° |
| 2026-05-05 20:21 | -1.11266 | 22.10221 | 31970 ft | 496 kts | 243° |
| 2026-05-05 20:21 | -1.14362 | 22.04091 | 31966 ft | 497 kts | 244° |
| 2026-05-05 20:22 | -1.17509 | 21.97860 | 31968 ft | 497 kts | 244° |
| 2026-05-05 20:22 | -1.20619 | 21.91702 | 31970 ft | 498 kts | 243° |
| 2026-05-05 20:23 | -1.23786 | 21.85433 | 31969 ft | 498 kts | 243° |
| 2026-05-05 20:23 | -1.26905 | 21.79256 | 31968 ft | 497 kts | 243° |
| 2026-05-05 20:24 | -1.30025 | 21.73077 | 31971 ft | 497 kts | 243° |
| 2026-05-05 20:24 | -1.33116 | 21.66925 | 31968 ft | 499 kts | 244° |
| 2026-05-05 20:25 | -1.36159 | 21.60698 | 31971 ft | 498 kts | 244° |
| 2026-05-05 20:25 | -1.39189 | 21.54498 | 31968 ft | 500 kts | 244° |
| 2026-05-05 20:26 | -1.42245 | 21.48250 | 31971 ft | 500 kts | 244° |
| 2026-05-05 20:26 | -1.45292 | 21.42020 | 31972 ft | 499 kts | 244° |
| 2026-05-05 20:27 | -1.48341 | 21.35791 | 31972 ft | 500 kts | 244° |
| 2026-05-05 20:27 | -1.51394 | 21.29552 | 31971 ft | 499 kts | 244° |
| 2026-05-05 20:28 | -1.54476 | 21.23255 | 31969 ft | 501 kts | 244° |
| 2026-05-05 20:28 | -1.57555 | 21.16961 | 31970 ft | 502 kts | 243° |
| 2026-05-05 20:29 | -1.60619 | 21.10700 | 31973 ft | 502 kts | 244° |
| 2026-05-05 20:29 | -1.63702 | 21.04398 | 31974 ft | 503 kts | 244° |
| 2026-05-05 20:30 | -1.66767 | 20.98132 | 31979 ft | 501 kts | 244° |
| 2026-05-05 20:30 | -1.69824 | 20.91884 | 31972 ft | 502 kts | 243° |
| 2026-05-05 20:31 | -1.72883 | 20.85631 | 31971 ft | 502 kts | 243° |
| 2026-05-05 20:31 | -1.75951 | 20.79356 | 31971 ft | 502 kts | 243° |
| 2026-05-05 20:32 | -1.79010 | 20.73101 | 31968 ft | 502 kts | 243° |
| 2026-05-05 20:32 | -1.82067 | 20.66850 | 31971 ft | 503 kts | 243° |
| 2026-05-05 20:33 | -1.85130 | 20.60584 | 31970 ft | 502 kts | 244° |
| 2026-05-05 20:33 | -1.88200 | 20.54305 | 31968 ft | 502 kts | 244° |
| 2026-05-05 20:34 | -1.91251 | 20.48064 | 31969 ft | 502 kts | 243° |
| 2026-05-05 20:34 | -1.94320 | 20.41784 | 31968 ft | 501 kts | 244° |
| 2026-05-05 20:35 | -1.97384 | 20.35515 | 31965 ft | 502 kts | 243° |
| 2026-05-05 20:35 | -2.00442 | 20.29256 | 31959 ft | 502 kts | 243° |
| 2026-05-05 20:36 | -2.03371 | 20.23263 | 31960 ft | 502 kts | 244° |
| 2026-05-05 20:36 | -2.06460 | 20.16939 | 31958 ft | 502 kts | 244° |
| 2026-05-05 20:37 | -2.09534 | 20.10647 | 31957 ft | 500 kts | 244° |
| 2026-05-05 20:37 | -2.12603 | 20.04363 | 31953 ft | 500 kts | 244° |
| 2026-05-05 20:38 | -2.15707 | 19.98008 | 31947 ft | 502 kts | 244° |
| 2026-05-05 20:38 | -2.18787 | 19.91700 | 31935 ft | 502 kts | 244° |
| 2026-05-05 20:39 | -2.21842 | 19.85450 | 31933 ft | 501 kts | 244° |
| 2026-05-05 20:39 | -2.24965 | 19.79143 | 31932 ft | 501 kts | 244° |
| 2026-05-05 20:40 | -2.28047 | 19.72921 | 31933 ft | 500 kts | 244° |
| 2026-05-05 20:40 | -2.31117 | 19.66720 | 31934 ft | 501 kts | 244° |
| 2026-05-05 20:41 | -2.34213 | 19.60464 | 31932 ft | 501 kts | 244° |
| 2026-05-05 20:41 | -2.37300 | 19.54225 | 31934 ft | 501 kts | 244° |
| 2026-05-05 20:42 | -2.40378 | 19.48002 | 31932 ft | 501 kts | 244° |
| 2026-05-05 20:42 | -2.43460 | 19.41771 | 31933 ft | 500 kts | 244° |
| 2026-05-05 20:43 | -2.46553 | 19.35516 | 31939 ft | 501 kts | 244° |
| 2026-05-05 20:43 | -2.49627 | 19.29300 | 31940 ft | 501 kts | 244° |
| 2026-05-05 20:44 | -2.52741 | 19.23000 | 31945 ft | 500 kts | 244° |
| 2026-05-05 20:44 | -2.55858 | 19.16694 | 31946 ft | 501 kts | 244° |
| 2026-05-05 20:45 | -2.60499 | 19.07303 | 31946 ft | 499 kts | 244° |
| 2026-05-05 20:45 | -2.63577 | 19.01074 | 31945 ft | 499 kts | 244° |
| 2026-05-05 20:46 | -2.66627 | 18.94900 | 31948 ft | 498 kts | 244° |
| 2026-05-05 20:46 | -2.69706 | 18.88666 | 31943 ft | 500 kts | 244° |
| 2026-05-05 20:47 | -2.72790 | 18.82422 | 31945 ft | 500 kts | 244° |
| 2026-05-05 20:47 | -2.75856 | 18.76222 | 31946 ft | 501 kts | 244° |
| 2026-05-05 20:48 | -2.78946 | 18.69977 | 31948 ft | 499 kts | 244° |
| 2026-05-05 20:48 | -2.82025 | 18.63752 | 31947 ft | 499 kts | 244° |
| 2026-05-05 20:49 | -2.85097 | 18.57541 | 31948 ft | 499 kts | 244° |
| 2026-05-05 20:49 | -2.88170 | 18.51326 | 31949 ft | 501 kts | 244° |
| 2026-05-05 20:50 | -2.91252 | 18.45093 | 31945 ft | 502 kts | 244° |
| 2026-05-05 20:50 | -2.94336 | 18.38854 | 31949 ft | 501 kts | 244° |
| 2026-05-05 20:51 | -2.97439 | 18.32576 | 31945 ft | 501 kts | 244° |
| 2026-05-05 20:51 | -3.00534 | 18.26312 | 31945 ft | 501 kts | 244° |
| 2026-05-05 20:52 | -3.03700 | 18.19904 | 31946 ft | 500 kts | 244° |
| 2026-05-05 20:52 | -3.06764 | 18.13701 | 31944 ft | 499 kts | 244° |
| 2026-05-05 20:53 | -3.09874 | 18.07404 | 31950 ft | 502 kts | 244° |
| 2026-05-05 20:53 | -3.12967 | 18.01139 | 31941 ft | 502 kts | 244° |
| 2026-05-05 20:54 | -3.16115 | 17.94763 | 31944 ft | 503 kts | 244° |
| 2026-05-05 20:54 | -3.19221 | 17.88471 | 31947 ft | 502 kts | 244° |
| 2026-05-05 20:55 | -3.22301 | 17.82229 | 31944 ft | 500 kts | 244° |
| 2026-05-05 20:55 | -3.25454 | 17.75840 | 31940 ft | 500 kts | 244° |
| 2026-05-05 20:56 | -3.28529 | 17.69605 | 31944 ft | 501 kts | 244° |
| 2026-05-05 20:56 | -3.31600 | 17.63380 | 31947 ft | 501 kts | 244° |
| 2026-05-05 20:57 | -3.34704 | 17.57084 | 31950 ft | 501 kts | 244° |
| 2026-05-05 20:57 | -3.37770 | 17.50867 | 31948 ft | 501 kts | 244° |
| 2026-05-05 20:58 | -3.40861 | 17.44596 | 31953 ft | 500 kts | 244° |
| 2026-05-05 20:58 | -3.43924 | 17.38379 | 31951 ft | 500 kts | 244° |
| 2026-05-05 20:59 | -3.46993 | 17.32150 | 31949 ft | 500 kts | 244° |
| 2026-05-05 20:59 | -3.50089 | 17.25864 | 31946 ft | 501 kts | 244° |
| 2026-05-05 21:00 | -3.53215 | 17.19515 | 31949 ft | 501 kts | 244° |
| 2026-05-05 21:00 | -3.56310 | 17.13229 | 31946 ft | 502 kts | 244° |
| 2026-05-05 21:01 | -3.59402 | 17.06947 | 31945 ft | 501 kts | 244° |
| 2026-05-05 21:01 | -3.62470 | 17.00713 | 31946 ft | 500 kts | 244° |
| 2026-05-05 21:02 | -3.65540 | 16.94473 | 31950 ft | 501 kts | 244° |
| 2026-05-05 21:02 | -3.68624 | 16.88205 | 31957 ft | 499 kts | 244° |
| 2026-05-05 21:03 | -3.71686 | 16.81979 | 31974 ft | 498 kts | 244° |
| 2026-05-05 21:03 | -3.74738 | 16.75770 | 31988 ft | 498 kts | 244° |
| 2026-05-05 21:04 | -3.77796 | 16.69549 | 31988 ft | 498 kts | 244° |
| 2026-05-05 21:04 | -3.80850 | 16.63336 | 31993 ft | 497 kts | 244° |
| 2026-05-05 21:05 | -3.83886 | 16.57153 | 31996 ft | 498 kts | 244° |
| 2026-05-05 21:05 | -3.86933 | 16.50932 | 32005 ft | 498 kts | 244° |
| 2026-05-05 21:06 | -3.89968 | 16.44733 | 32013 ft | 497 kts | 244° |
| 2026-05-05 21:06 | -3.93001 | 16.38536 | 32018 ft | 498 kts | 244° |
| 2026-05-05 21:07 | -3.96047 | 16.32314 | 32011 ft | 496 kts | 244° |
| 2026-05-05 21:07 | -3.99095 | 16.26084 | 32009 ft | 497 kts | 244° |
| 2026-05-05 21:08 | -4.02148 | 16.19844 | 32002 ft | 498 kts | 244° |
| 2026-05-05 21:08 | -4.05224 | 16.13556 | 31997 ft | 499 kts | 244° |
| 2026-05-05 21:09 | -4.08271 | 16.07324 | 31994 ft | 497 kts | 244° |
| 2026-05-05 21:09 | -4.11311 | 16.01107 | 31987 ft | 497 kts | 244° |
| 2026-05-05 21:10 | -4.14344 | 15.94902 | 31986 ft | 496 kts | 244° |
| 2026-05-05 21:10 | -4.17430 | 15.88586 | 31996 ft | 496 kts | 244° |
| 2026-05-05 21:11 | -4.20460 | 15.82385 | 32013 ft | 496 kts | 244° |
| 2026-05-05 21:11 | -4.23533 | 15.76092 | 32026 ft | 497 kts | 244° |
| 2026-05-05 21:12 | -4.26610 | 15.69792 | 32016 ft | 496 kts | 244° |
| 2026-05-05 21:12 | -4.29655 | 15.63555 | 31995 ft | 496 kts | 244° |
| 2026-05-05 21:13 | -4.32682 | 15.57352 | 31984 ft | 496 kts | 244° |
| 2026-05-05 21:13 | -4.35725 | 15.51117 | 31979 ft | 496 kts | 244° |
| 2026-05-05 21:14 | -4.38745 | 15.44927 | 31982 ft | 497 kts | 244° |
| 2026-05-05 21:14 | -4.41513 | 15.38601 | 32071 ft | 501 kts | 249° |
| 2026-05-05 21:15 | -4.42765 | 15.35348 | 32530 ft | 500 kts | 250° |
| 2026-05-05 21:15 | -4.44002 | 15.32127 | 33286 ft | 494 kts | 250° |
| 2026-05-05 21:15 | -4.45239 | 15.28910 | 33921 ft | 490 kts | 250° |
| 2026-05-05 21:15 | -4.46473 | 15.25700 | 33993 ft | 492 kts | 250° |
| 2026-05-05 21:16 | -4.48990 | 15.19156 | 33991 ft | 486 kts | 250° |
| 2026-05-05 21:16 | -4.51444 | 15.12778 | 33989 ft | 487 kts | 250° |
| 2026-05-05 21:17 | -4.53900 | 15.06394 | 33985 ft | 487 kts | 250° |
| 2026-05-05 21:17 | -4.56334 | 15.00065 | 33978 ft | 488 kts | 250° |
| 2026-05-05 21:18 | -4.58778 | 14.93709 | 33976 ft | 488 kts | 250° |
| 2026-05-05 21:18 | -4.61235 | 14.87316 | 33978 ft | 488 kts | 250° |
| 2026-05-05 21:19 | -4.63671 | 14.80976 | 33976 ft | 490 kts | 250° |
| 2026-05-05 21:19 | -4.66125 | 14.74589 | 33980 ft | 490 kts | 250° |
| 2026-05-05 21:20 | -4.68561 | 14.68245 | 33981 ft | 489 kts | 250° |
| 2026-05-05 21:20 | -4.71015 | 14.61853 | 33982 ft | 490 kts | 250° |
| 2026-05-05 21:21 | -4.73455 | 14.55496 | 33980 ft | 491 kts | 250° |
| 2026-05-05 21:21 | -4.75902 | 14.49116 | 33979 ft | 492 kts | 250° |
| 2026-05-05 21:22 | -4.78378 | 14.42662 | 33980 ft | 493 kts | 250° |
| 2026-05-05 21:22 | -4.80838 | 14.36247 | 33980 ft | 494 kts | 250° |
| 2026-05-05 21:23 | -4.83294 | 14.29838 | 33972 ft | 493 kts | 250° |
| 2026-05-05 21:23 | -4.85754 | 14.23418 | 33967 ft | 494 kts | 250° |
| 2026-05-05 21:24 | -4.88251 | 14.16901 | 33971 ft | 496 kts | 250° |
| 2026-05-05 21:24 | -4.90736 | 14.10394 | 33970 ft | 496 kts | 250° |
| 2026-05-05 21:25 | -4.93204 | 14.03923 | 33971 ft | 497 kts | 250° |
| 2026-05-05 21:25 | -4.95680 | 13.97432 | 33977 ft | 497 kts | 250° |
| 2026-05-05 21:26 | -4.98130 | 13.91007 | 33982 ft | 496 kts | 250° |
| 2026-05-05 21:26 | -5.00612 | 13.84494 | 33993 ft | 499 kts | 250° |
| 2026-05-05 21:27 | -5.03071 | 13.78040 | 34005 ft | 499 kts | 250° |
| 2026-05-05 21:27 | -5.05539 | 13.71564 | 34007 ft | 498 kts | 250° |
| 2026-05-05 21:28 | -5.08009 | 13.65076 | 34005 ft | 497 kts | 250° |
| 2026-05-05 21:28 | -5.10466 | 13.58623 | 34001 ft | 498 kts | 250° |
| 2026-05-05 21:29 | -5.12932 | 13.52142 | 33999 ft | 499 kts | 250° |
| 2026-05-05 21:29 | -5.15436 | 13.45560 | 33996 ft | 499 kts | 250° |
| 2026-05-05 21:30 | -5.17915 | 13.39039 | 33993 ft | 497 kts | 250° |
| 2026-05-05 21:30 | -5.20404 | 13.32493 | 33991 ft | 498 kts | 251° |
| 2026-05-05 21:31 | -5.22878 | 13.25984 | 33978 ft | 497 kts | 251° |
| 2026-05-05 21:31 | -5.25360 | 13.19449 | 33981 ft | 498 kts | 251° |
| 2026-05-05 21:32 | -5.27822 | 13.12964 | 33986 ft | 498 kts | 251° |
| 2026-05-05 21:32 | -5.30294 | 13.06454 | 33985 ft | 498 kts | 251° |
| 2026-05-05 21:33 | -5.32752 | 12.99977 | 33983 ft | 497 kts | 250° |
| 2026-05-05 21:33 | -5.35194 | 12.93538 | 33974 ft | 497 kts | 251° |
| 2026-05-05 21:34 | -5.37650 | 12.87063 | 33961 ft | 496 kts | 251° |
| 2026-05-05 21:34 | -5.40097 | 12.80607 | 33958 ft | 496 kts | 251° |
| 2026-05-05 21:35 | -5.42550 | 12.74135 | 33950 ft | 495 kts | 251° |
| 2026-05-05 21:35 | -5.44996 | 12.67678 | 33945 ft | 495 kts | 251° |
| 2026-05-05 21:36 | -5.47433 | 12.61242 | 33943 ft | 494 kts | 251° |
| 2026-05-05 21:36 | -5.49875 | 12.54791 | 33942 ft | 493 kts | 251° |
| 2026-05-05 21:37 | -5.52295 | 12.48396 | 33940 ft | 493 kts | 251° |
| 2026-05-05 21:37 | -5.54731 | 12.41966 | 33936 ft | 493 kts | 251° |
| 2026-05-05 21:38 | -5.57166 | 12.35538 | 33938 ft | 492 kts | 251° |
| 2026-05-05 21:38 | -5.59583 | 12.29150 | 33937 ft | 492 kts | 251° |
| 2026-05-05 21:39 | -5.62012 | 12.22730 | 33938 ft | 491 kts | 251° |
| 2026-05-05 21:39 | -5.64008 | 12.16247 | 33943 ft | 489 kts | 259° |
| 2026-05-05 21:40 | -5.65404 | 12.09553 | 33930 ft | 489 kts | 260° |
| 2026-05-05 21:40 | -5.66786 | 12.02879 | 33931 ft | 488 kts | 260° |
| 2026-05-05 21:41 | -5.68156 | 11.96270 | 33934 ft | 487 kts | 260° |
| 2026-05-05 21:41 | -5.69541 | 11.89583 | 33933 ft | 488 kts | 260° |
| 2026-05-05 21:42 | -5.70918 | 11.82939 | 33932 ft | 488 kts | 259° |
| 2026-05-05 21:42 | -5.72297 | 11.76279 | 33932 ft | 489 kts | 259° |
| 2026-05-05 21:43 | -5.73673 | 11.69631 | 33933 ft | 488 kts | 259° |
| 2026-05-05 21:43 | -5.75052 | 11.62970 | 33933 ft | 489 kts | 259° |
| 2026-05-05 21:44 | -5.76431 | 11.56299 | 33932 ft | 488 kts | 259° |
| 2026-05-05 21:44 | -5.77801 | 11.49666 | 33933 ft | 487 kts | 259° |
| 2026-05-05 21:45 | -5.79174 | 11.43019 | 33934 ft | 487 kts | 259° |
| 2026-05-05 21:45 | -5.80546 | 11.36370 | 33933 ft | 488 kts | 259° |
| 2026-05-05 21:46 | -5.81926 | 11.29682 | 33932 ft | 489 kts | 259° |
| 2026-05-05 21:46 | -5.83295 | 11.23040 | 33933 ft | 487 kts | 259° |
| 2026-05-05 21:47 | -5.84668 | 11.16374 | 33935 ft | 487 kts | 259° |
| 2026-05-05 21:47 | -5.86031 | 11.09755 | 33932 ft | 486 kts | 259° |
| 2026-05-05 21:48 | -5.87399 | 11.03107 | 33932 ft | 485 kts | 259° |
| 2026-05-05 21:48 | -5.88760 | 10.96485 | 33927 ft | 486 kts | 259° |
| 2026-05-05 21:49 | -5.90120 | 10.89868 | 33914 ft | 486 kts | 259° |
| 2026-05-05 21:49 | -5.91478 | 10.83258 | 33910 ft | 487 kts | 259° |
| 2026-05-05 21:50 | -5.92851 | 10.76566 | 33911 ft | 488 kts | 259° |
| 2026-05-05 21:50 | -5.94211 | 10.69939 | 33910 ft | 487 kts | 259° |
| 2026-05-05 21:51 | -5.95579 | 10.63263 | 33913 ft | 487 kts | 259° |
| 2026-05-05 21:51 | -5.96937 | 10.56635 | 33911 ft | 487 kts | 259° |
| 2026-05-05 21:52 | -5.98979 | 10.46659 | 33912 ft | 489 kts | 259° |
| 2026-05-05 21:53 | -6.00336 | 10.39986 | 33912 ft | 488 kts | 259° |
| 2026-05-05 21:53 | -6.01608 | 10.33278 | 33911 ft | 489 kts | 260° |
| 2026-05-05 21:54 | -6.02870 | 10.26604 | 33910 ft | 489 kts | 260° |
| 2026-05-05 21:54 | -6.04143 | 10.19878 | 33911 ft | 488 kts | 260° |
| 2026-05-05 21:55 | -6.05408 | 10.13200 | 33912 ft | 490 kts | 260° |
| 2026-05-05 21:55 | -6.06684 | 10.06458 | 33912 ft | 490 kts | 260° |
| 2026-05-05 21:56 | -6.07956 | 9.99745 | 33911 ft | 490 kts | 260° |
| 2026-05-05 21:56 | -6.09221 | 9.93056 | 33914 ft | 493 kts | 260° |
| 2026-05-05 21:57 | -6.10500 | 9.86295 | 33921 ft | 491 kts | 260° |
| 2026-05-05 21:57 | -6.11770 | 9.79574 | 33927 ft | 493 kts | 260° |
| 2026-05-05 21:58 | -6.13046 | 9.72821 | 33925 ft | 492 kts | 260° |
| 2026-05-05 21:58 | -6.14316 | 9.66090 | 33927 ft | 492 kts | 260° |
| 2026-05-05 21:59 | -6.15588 | 9.59347 | 33926 ft | 494 kts | 260° |
| 2026-05-05 21:59 | -6.16865 | 9.52570 | 33932 ft | 494 kts | 260° |
| 2026-05-05 22:00 | -6.18137 | 9.45818 | 33934 ft | 494 kts | 260° |
| 2026-05-05 22:00 | -6.19412 | 9.39045 | 33934 ft | 495 kts | 260° |
| 2026-05-05 22:01 | -6.20690 | 9.32246 | 33927 ft | 495 kts | 260° |
| 2026-05-05 22:01 | -6.21961 | 9.25484 | 33928 ft | 494 kts | 260° |
| 2026-05-05 22:02 | -6.23236 | 9.18694 | 33929 ft | 496 kts | 259° |
| 2026-05-05 22:02 | -6.24505 | 9.11932 | 33931 ft | 494 kts | 260° |
| 2026-05-05 22:03 | -6.25775 | 9.05159 | 33929 ft | 495 kts | 260° |
| 2026-05-05 22:03 | -6.27049 | 8.98362 | 33927 ft | 496 kts | 260° |
| 2026-05-05 22:04 | -6.28320 | 8.91573 | 33932 ft | 496 kts | 260° |
| 2026-05-05 22:04 | -6.29598 | 8.84743 | 33934 ft | 497 kts | 260° |
| 2026-05-05 22:05 | -6.30864 | 8.77971 | 33931 ft | 495 kts | 259° |
| 2026-05-05 22:05 | -6.32143 | 8.71127 | 33934 ft | 497 kts | 259° |
| 2026-05-05 22:06 | -6.33408 | 8.64353 | 33935 ft | 498 kts | 259° |
| 2026-05-05 22:06 | -6.34684 | 8.57511 | 33934 ft | 498 kts | 259° |
| 2026-05-05 22:07 | -6.35956 | 8.50689 | 33932 ft | 497 kts | 259° |
| 2026-05-05 22:07 | -6.37219 | 8.43908 | 33929 ft | 498 kts | 259° |
| 2026-05-05 22:08 | -6.38494 | 8.37056 | 33929 ft | 497 kts | 259° |
| 2026-05-05 22:08 | -6.39759 | 8.30253 | 33933 ft | 497 kts | 259° |
| 2026-05-05 22:09 | -6.41025 | 8.23443 | 33928 ft | 497 kts | 259° |
| 2026-05-05 22:09 | -6.42295 | 8.16606 | 33935 ft | 496 kts | 259° |
| 2026-05-05 22:10 | -6.43553 | 8.09827 | 33937 ft | 496 kts | 259° |
| 2026-05-05 22:10 | -6.44819 | 8.02998 | 33939 ft | 496 kts | 259° |
| 2026-05-05 22:11 | -6.46083 | 7.96177 | 33937 ft | 496 kts | 259° |
| 2026-05-05 22:11 | -6.47345 | 7.89362 | 33936 ft | 497 kts | 259° |
| 2026-05-05 22:12 | -6.48595 | 7.82604 | 33933 ft | 494 kts | 259° |
| 2026-05-05 22:12 | -6.49850 | 7.75815 | 33927 ft | 495 kts | 259° |
| 2026-05-05 22:13 | -6.51112 | 7.68985 | 33928 ft | 494 kts | 259° |
| 2026-05-05 22:13 | -6.52364 | 7.62200 | 33929 ft | 495 kts | 259° |
| 2026-05-05 22:14 | -6.53610 | 7.55446 | 33927 ft | 495 kts | 259° |
| 2026-05-05 22:14 | -6.54861 | 7.48653 | 33936 ft | 493 kts | 258° |
| 2026-05-05 22:15 | -6.56108 | 7.41885 | 33934 ft | 493 kts | 259° |
| 2026-05-05 22:15 | -6.57351 | 7.35129 | 33935 ft | 494 kts | 259° |
| 2026-05-05 22:16 | -6.58593 | 7.28372 | 33932 ft | 494 kts | 259° |
| 2026-05-05 22:16 | -6.59840 | 7.21587 | 33929 ft | 491 kts | 259° |
| 2026-05-05 22:17 | -6.61078 | 7.14842 | 33929 ft | 491 kts | 259° |
| 2026-05-05 22:17 | -6.62311 | 7.08118 | 33928 ft | 491 kts | 259° |
| 2026-05-05 22:18 | -6.63551 | 7.01354 | 33930 ft | 490 kts | 259° |
| 2026-05-05 22:18 | -6.64781 | 6.94636 | 33931 ft | 491 kts | 259° |
| 2026-05-05 22:19 | -6.66020 | 6.87869 | 33933 ft | 492 kts | 259° |
| 2026-05-05 22:19 | -6.67249 | 6.81148 | 33934 ft | 492 kts | 259° |
| 2026-05-05 22:20 | -6.68483 | 6.74391 | 33936 ft | 490 kts | 259° |
| 2026-05-05 22:20 | -6.69708 | 6.67684 | 33945 ft | 490 kts | 259° |
| 2026-05-05 22:21 | -6.70936 | 6.60952 | 33938 ft | 490 kts | 259° |
| 2026-05-05 22:21 | -6.72165 | 6.54209 | 33939 ft | 490 kts | 259° |
| 2026-05-05 22:22 | -6.73381 | 6.47529 | 33942 ft | 488 kts | 259° |
| 2026-05-05 22:22 | -6.74607 | 6.40791 | 33948 ft | 489 kts | 259° |
| 2026-05-05 22:23 | -6.75826 | 6.34092 | 33946 ft | 489 kts | 259° |
| 2026-05-05 22:23 | -6.77051 | 6.27347 | 33944 ft | 489 kts | 259° |
| 2026-05-05 22:24 | -6.78264 | 6.20665 | 33944 ft | 489 kts | 259° |
| 2026-05-05 22:24 | -6.79479 | 6.13969 | 33944 ft | 487 kts | 259° |
| 2026-05-05 22:25 | -6.80693 | 6.07267 | 33948 ft | 488 kts | 259° |
| 2026-05-05 22:25 | -6.81905 | 6.00574 | 33945 ft | 487 kts | 259° |
| 2026-05-05 22:26 | -6.83122 | 5.93850 | 33947 ft | 487 kts | 259° |
| 2026-05-05 22:26 | -6.84331 | 5.87163 | 33944 ft | 487 kts | 259° |
| 2026-05-05 22:27 | -6.85542 | 5.80461 | 33950 ft | 490 kts | 259° |
| 2026-05-05 22:27 | -6.86755 | 5.73740 | 33946 ft | 489 kts | 259° |
| 2026-05-05 22:28 | -6.87964 | 5.67039 | 33950 ft | 489 kts | 259° |
| 2026-05-05 22:28 | -6.89181 | 5.60283 | 33950 ft | 490 kts | 259° |
| 2026-05-05 22:29 | -6.90393 | 5.53553 | 33949 ft | 490 kts | 259° |
| 2026-05-05 22:29 | -6.91598 | 5.46858 | 33948 ft | 490 kts | 259° |
| 2026-05-05 22:30 | -6.92813 | 5.40097 | 33950 ft | 491 kts | 259° |
| 2026-05-05 22:30 | -6.94023 | 5.33360 | 33948 ft | 491 kts | 259° |
| 2026-05-05 22:31 | -6.95238 | 5.26588 | 33951 ft | 492 kts | 260° |
| 2026-05-05 22:31 | -6.96445 | 5.19860 | 33946 ft | 491 kts | 260° |
| 2026-05-05 22:32 | -6.97655 | 5.13105 | 33951 ft | 492 kts | 260° |
| 2026-05-05 22:32 | -6.98865 | 5.06346 | 33947 ft | 490 kts | 260° |
| 2026-05-05 22:33 | -7.00069 | 4.99613 | 33948 ft | 490 kts | 260° |
| 2026-05-05 22:33 | -7.01433 | 4.92895 | 33950 ft | 491 kts | 258° |
| 2026-05-05 22:34 | -7.02827 | 4.86183 | 33952 ft | 490 kts | 258° |
| 2026-05-05 22:34 | -7.04207 | 4.79509 | 33954 ft | 491 kts | 258° |
| 2026-05-05 22:35 | -7.05591 | 4.72794 | 33951 ft | 490 kts | 258° |
| 2026-05-05 22:35 | -7.06975 | 4.66062 | 33952 ft | 490 kts | 258° |
| 2026-05-05 22:36 | -7.08346 | 4.59383 | 33955 ft | 490 kts | 258° |
| 2026-05-05 22:36 | -7.09724 | 4.52662 | 33954 ft | 489 kts | 258° |
| 2026-05-05 22:37 | -7.11098 | 4.45956 | 33957 ft | 489 kts | 258° |
| 2026-05-05 22:37 | -7.12461 | 4.39297 | 33956 ft | 490 kts | 258° |
| 2026-05-05 22:38 | -7.13831 | 4.32600 | 33953 ft | 488 kts | 258° |
| 2026-05-05 22:38 | -7.15195 | 4.25925 | 33956 ft | 489 kts | 258° |
| 2026-05-05 22:39 | -7.16561 | 4.19235 | 33954 ft | 487 kts | 258° |
| 2026-05-05 22:39 | -7.17927 | 4.12540 | 33955 ft | 487 kts | 258° |
| 2026-05-05 22:40 | -7.19284 | 4.05884 | 33957 ft | 487 kts | 258° |
| 2026-05-05 22:40 | -7.20636 | 3.99248 | 33957 ft | 486 kts | 258° |
| 2026-05-05 22:41 | -7.21996 | 3.92567 | 33954 ft | 487 kts | 258° |
| 2026-05-05 22:41 | -7.23345 | 3.85937 | 33959 ft | 486 kts | 258° |
| 2026-05-05 22:42 | -7.24701 | 3.79264 | 33967 ft | 488 kts | 258° |
| 2026-05-05 22:42 | -7.26060 | 3.72570 | 33971 ft | 488 kts | 258° |
| 2026-05-05 22:43 | -7.27419 | 3.65875 | 33971 ft | 488 kts | 258° |
| 2026-05-05 22:43 | -7.28774 | 3.59191 | 33972 ft | 486 kts | 258° |
| 2026-05-05 22:44 | -7.30115 | 3.52575 | 33971 ft | 486 kts | 258° |
| 2026-05-05 22:44 | -7.31467 | 3.45895 | 33973 ft | 486 kts | 258° |
| 2026-05-05 22:45 | -7.32812 | 3.39251 | 33971 ft | 489 kts | 259° |
| 2026-05-05 22:45 | -7.34173 | 3.32514 | 33969 ft | 488 kts | 259° |
| 2026-05-05 22:46 | -7.35521 | 3.25843 | 33971 ft | 488 kts | 259° |
| 2026-05-05 22:46 | -7.36871 | 3.19150 | 33972 ft | 488 kts | 259° |
| 2026-05-05 22:47 | -7.38214 | 3.12493 | 33972 ft | 487 kts | 259° |
| 2026-05-05 22:47 | -7.39559 | 3.05816 | 33966 ft | 486 kts | 259° |
| 2026-05-05 22:48 | -7.40898 | 2.99168 | 33967 ft | 484 kts | 259° |
| 2026-05-05 22:48 | -7.42230 | 2.92548 | 33976 ft | 482 kts | 259° |
| 2026-05-05 22:49 | -7.43555 | 2.85955 | 33971 ft | 482 kts | 259° |
| 2026-05-05 22:49 | -7.44886 | 2.79327 | 33970 ft | 481 kts | 259° |
| 2026-05-05 22:50 | -7.46207 | 2.72747 | 33965 ft | 482 kts | 259° |
| 2026-05-05 22:50 | -7.47519 | 2.66204 | 33961 ft | 476 kts | 259° |
| 2026-05-05 22:51 | -7.48836 | 2.59628 | 33963 ft | 477 kts | 259° |
| 2026-05-05 22:51 | -7.50150 | 2.53070 | 33963 ft | 478 kts | 259° |
| 2026-05-05 22:52 | -7.51452 | 2.46562 | 33962 ft | 476 kts | 259° |
| 2026-05-05 22:52 | -7.52763 | 2.40002 | 33962 ft | 478 kts | 259° |
| 2026-05-05 22:53 | -7.54062 | 2.33499 | 33961 ft | 477 kts | 259° |
| 2026-05-05 22:53 | -7.55369 | 2.26951 | 33961 ft | 476 kts | 259° |
| 2026-05-05 22:54 | -7.56677 | 2.20390 | 33961 ft | 477 kts | 259° |
| 2026-05-05 22:54 | -7.57981 | 2.13844 | 33965 ft | 476 kts | 259° |
| 2026-05-05 22:55 | -7.59270 | 2.07371 | 33963 ft | 475 kts | 259° |
| 2026-05-05 22:55 | -7.60572 | 2.00826 | 33963 ft | 475 kts | 259° |
| 2026-05-05 22:56 | -7.61863 | 1.94330 | 33966 ft | 475 kts | 259° |
| 2026-05-05 22:56 | -7.63161 | 1.87796 | 33966 ft | 475 kts | 259° |
| 2026-05-05 22:57 | -7.64458 | 1.81261 | 33963 ft | 475 kts | 259° |
| 2026-05-05 22:57 | -7.65745 | 1.74771 | 33964 ft | 475 kts | 259° |
| 2026-05-05 22:58 | -7.67041 | 1.68227 | 33965 ft | 475 kts | 259° |
| 2026-05-05 22:58 | -7.68329 | 1.61723 | 33965 ft | 475 kts | 259° |
| 2026-05-05 22:59 | -7.69611 | 1.55238 | 33965 ft | 475 kts | 259° |
| 2026-05-05 22:59 | -7.70899 | 1.48721 | 33965 ft | 474 kts | 259° |
| 2026-05-05 23:00 | -7.72825 | 1.38968 | 33966 ft | 474 kts | 259° |
| 2026-05-05 23:00 | -7.74110 | 1.32452 | 33965 ft | 473 kts | 259° |
| 2026-05-05 23:01 | -7.75386 | 1.25978 | 33965 ft | 474 kts | 259° |
| 2026-05-05 23:01 | -7.76669 | 1.19463 | 33958 ft | 473 kts | 259° |
| 2026-05-05 23:02 | -7.77950 | 1.12950 | 33952 ft | 473 kts | 259° |
| 2026-05-05 23:02 | -7.79222 | 1.06479 | 33951 ft | 474 kts | 259° |
| 2026-05-05 23:03 | -7.80502 | 0.99963 | 33955 ft | 473 kts | 259° |
| 2026-05-05 23:03 | -7.81775 | 0.93478 | 33951 ft | 473 kts | 259° |
| 2026-05-05 23:04 | -7.83048 | 0.86982 | 33952 ft | 473 kts | 259° |
| 2026-05-05 23:04 | -7.84324 | 0.80472 | 33954 ft | 473 kts | 259° |
| 2026-05-05 23:05 | -7.85589 | 0.74010 | 33950 ft | 472 kts | 259° |
| 2026-05-05 23:05 | -7.86861 | 0.67508 | 33950 ft | 471 kts | 259° |
| 2026-05-05 23:06 | -7.88122 | 0.61054 | 33950 ft | 471 kts | 259° |
| 2026-05-05 23:06 | -7.89391 | 0.54556 | 33953 ft | 473 kts | 259° |
| 2026-05-05 23:07 | -7.90651 | 0.48093 | 33948 ft | 473 kts | 259° |
| 2026-05-05 23:07 | -7.91920 | 0.41583 | 33958 ft | 472 kts | 259° |
| 2026-05-05 23:08 | -7.93179 | 0.35120 | 33968 ft | 471 kts | 259° |
| 2026-05-05 23:08 | -7.94443 | 0.28623 | 33972 ft | 472 kts | 259° |
| 2026-05-05 23:09 | -7.95706 | 0.22128 | 33974 ft | 471 kts | 259° |
| 2026-05-05 23:09 | -7.96959 | 0.15677 | 33972 ft | 472 kts | 259° |
| 2026-05-05 23:10 | -7.98221 | 0.09174 | 33972 ft | 472 kts | 259° |
| 2026-05-05 23:10 | -7.99480 | 0.02685 | 33975 ft | 472 kts | 259° |
| 2026-05-05 23:11 | -8.01451 | -0.03587 | 33973 ft | 471 kts | 248° |
| 2026-05-05 23:11 | -8.03952 | -0.09702 | 33975 ft | 471 kts | 248° |
| 2026-05-05 23:12 | -8.06442 | -0.15787 | 33973 ft | 470 kts | 248° |
| 2026-05-05 23:12 | -8.08928 | -0.21873 | 33971 ft | 470 kts | 248° |
| 2026-05-05 23:13 | -8.11421 | -0.27983 | 33970 ft | 471 kts | 248° |
| 2026-05-05 23:13 | -8.13914 | -0.34095 | 33971 ft | 470 kts | 249° |
| 2026-05-05 23:14 | -8.16391 | -0.40174 | 33969 ft | 472 kts | 249° |
| 2026-05-05 23:14 | -8.18882 | -0.46290 | 33973 ft | 471 kts | 249° |
| 2026-05-05 23:15 | -8.21364 | -0.52387 | 33975 ft | 469 kts | 249° |
| 2026-05-05 23:15 | -8.23828 | -0.58444 | 33975 ft | 469 kts | 249° |
| 2026-05-05 23:16 | -8.26312 | -0.64552 | 33972 ft | 469 kts | 249° |
| 2026-05-05 23:16 | -8.28775 | -0.70610 | 33976 ft | 468 kts | 249° |
| 2026-05-05 23:17 | -8.31249 | -0.76700 | 33980 ft | 468 kts | 249° |
| 2026-05-05 23:17 | -8.33704 | -0.82748 | 33978 ft | 468 kts | 249° |
| 2026-05-05 23:18 | -8.36176 | -0.88838 | 33977 ft | 469 kts | 249° |
| 2026-05-05 23:18 | -8.38654 | -0.94947 | 33980 ft | 468 kts | 249° |
| 2026-05-05 23:19 | -8.41106 | -1.00996 | 33978 ft | 469 kts | 249° |
| 2026-05-05 23:19 | -8.43563 | -1.07057 | 33979 ft | 466 kts | 249° |
| 2026-05-05 23:20 | -8.46012 | -1.13104 | 33980 ft | 466 kts | 249° |
| 2026-05-05 23:20 | -8.48466 | -1.19167 | 33981 ft | 466 kts | 249° |
| 2026-05-05 23:21 | -8.50901 | -1.25185 | 33981 ft | 465 kts | 249° |
| 2026-05-05 23:21 | -8.53352 | -1.31245 | 33981 ft | 466 kts | 249° |
| 2026-05-05 23:22 | -8.55802 | -1.37306 | 33979 ft | 467 kts | 249° |
| 2026-05-05 23:22 | -8.58257 | -1.43384 | 33979 ft | 466 kts | 249° |
| 2026-05-05 23:23 | -8.60689 | -1.49407 | 33975 ft | 465 kts | 249° |
| 2026-05-05 23:23 | -8.63128 | -1.55449 | 33971 ft | 465 kts | 249° |
| 2026-05-05 23:24 | -8.65556 | -1.61470 | 33968 ft | 463 kts | 249° |
| 2026-05-05 23:24 | -8.67992 | -1.67511 | 33974 ft | 464 kts | 250° |
| 2026-05-05 23:25 | -8.70426 | -1.73552 | 33973 ft | 465 kts | 250° |
| 2026-05-05 23:25 | -8.72844 | -1.79556 | 33973 ft | 465 kts | 250° |
| 2026-05-05 23:26 | -8.75283 | -1.85616 | 33973 ft | 465 kts | 250° |
| 2026-05-05 23:26 | -8.77716 | -1.91663 | 33973 ft | 463 kts | 250° |
| 2026-05-05 23:27 | -8.80127 | -1.97657 | 33973 ft | 462 kts | 249° |
| 2026-05-05 23:27 | -8.82524 | -2.03622 | 33970 ft | 460 kts | 250° |
| 2026-05-05 23:28 | -8.84940 | -2.09638 | 33969 ft | 462 kts | 250° |
| 2026-05-05 23:28 | -8.87358 | -2.15659 | 33971 ft | 463 kts | 250° |
| 2026-05-05 23:29 | -8.89766 | -2.21660 | 33971 ft | 463 kts | 250° |
| 2026-05-05 23:29 | -8.92195 | -2.27717 | 33968 ft | 463 kts | 250° |
| 2026-05-05 23:30 | -8.94600 | -2.33717 | 33970 ft | 463 kts | 250° |
| 2026-05-05 23:30 | -8.97021 | -2.39759 | 33971 ft | 462 kts | 250° |
| 2026-05-05 23:31 | -8.99415 | -2.45738 | 33969 ft | 462 kts | 250° |
| 2026-05-05 23:31 | -9.01823 | -2.51756 | 33970 ft | 462 kts | 250° |
| 2026-05-05 23:32 | -9.04232 | -2.57779 | 33968 ft | 461 kts | 250° |
| 2026-05-05 23:32 | -9.06625 | -2.63766 | 33968 ft | 461 kts | 250° |
| 2026-05-05 23:33 | -9.09035 | -2.69797 | 33977 ft | 462 kts | 250° |
| 2026-05-05 23:33 | -9.11425 | -2.75782 | 33975 ft | 461 kts | 250° |
| 2026-05-05 23:34 | -9.13827 | -2.81801 | 33977 ft | 461 kts | 250° |
| 2026-05-05 23:34 | -9.16230 | -2.87825 | 33972 ft | 461 kts | 250° |
| 2026-05-05 23:35 | -9.18618 | -2.93816 | 33974 ft | 461 kts | 250° |
| 2026-05-05 23:35 | -9.21005 | -2.99807 | 33978 ft | 460 kts | 250° |
| 2026-05-05 23:36 | -9.23408 | -3.05840 | 33975 ft | 461 kts | 250° |
| 2026-05-05 23:36 | -9.25801 | -3.11853 | 33981 ft | 461 kts | 250° |
| 2026-05-05 23:37 | -9.28197 | -3.17877 | 33978 ft | 461 kts | 250° |
| 2026-05-05 23:37 | -9.30585 | -3.23883 | 33988 ft | 460 kts | 250° |
| 2026-05-05 23:38 | -9.32967 | -3.29878 | 33994 ft | 460 kts | 250° |
| 2026-05-05 23:38 | -9.35346 | -3.35868 | 33997 ft | 461 kts | 250° |
| 2026-05-05 23:39 | -9.37731 | -3.41876 | 33996 ft | 460 kts | 250° |
| 2026-05-05 23:39 | -9.40102 | -3.47853 | 33996 ft | 460 kts | 250° |
| 2026-05-05 23:40 | -9.42487 | -3.53869 | 33996 ft | 460 kts | 250° |
| 2026-05-05 23:40 | -9.44865 | -3.59871 | 33994 ft | 459 kts | 251° |
| 2026-05-05 23:41 | -9.47237 | -3.65861 | 34000 ft | 459 kts | 251° |
| 2026-05-05 23:41 | -9.49617 | -3.71874 | 34005 ft | 459 kts | 251° |
| 2026-05-05 23:42 | -9.51977 | -3.77841 | 34006 ft | 458 kts | 251° |
| 2026-05-05 23:42 | -9.54337 | -3.83809 | 34005 ft | 458 kts | 251° |
| 2026-05-05 23:43 | -9.56710 | -3.89815 | 34006 ft | 458 kts | 251° |
| 2026-05-05 23:43 | -9.59072 | -3.95797 | 34008 ft | 459 kts | 251° |
| 2026-05-05 23:44 | -9.61437 | -4.01789 | 34005 ft | 459 kts | 251° |
| 2026-05-05 23:44 | -9.63803 | -4.07788 | 34005 ft | 458 kts | 251° |
| 2026-05-05 23:45 | -9.66164 | -4.13778 | 34006 ft | 458 kts | 251° |
| 2026-05-05 23:45 | -9.68523 | -4.19764 | 34009 ft | 458 kts | 251° |
| 2026-05-05 23:46 | -9.70871 | -4.25729 | 34005 ft | 458 kts | 251° |
| 2026-05-05 23:46 | -9.73245 | -4.31760 | 34006 ft | 458 kts | 251° |
| 2026-05-05 23:47 | -9.75585 | -4.37710 | 34007 ft | 458 kts | 251° |
| 2026-05-05 23:47 | -9.77940 | -4.43702 | 34007 ft | 458 kts | 251° |
| 2026-05-05 23:48 | -9.80293 | -4.49693 | 34005 ft | 459 kts | 251° |
| 2026-05-05 23:48 | -9.82653 | -4.55703 | 34005 ft | 458 kts | 251° |
| 2026-05-05 23:49 | -9.85010 | -4.61712 | 34005 ft | 459 kts | 251° |
| 2026-05-05 23:49 | -9.87352 | -4.67683 | 34016 ft | 458 kts | 251° |
| 2026-05-05 23:50 | -9.89699 | -4.73672 | 34014 ft | 456 kts | 251° |
| 2026-05-05 23:50 | -9.92049 | -4.79672 | 34015 ft | 458 kts | 251° |
| 2026-05-05 23:51 | -9.94376 | -4.85617 | 34012 ft | 457 kts | 252° |
| 2026-05-05 23:51 | -9.96722 | -4.91614 | 34014 ft | 457 kts | 252° |
| 2026-05-05 23:52 | -9.99065 | -4.97606 | 34013 ft | 456 kts | 251° |
| 2026-05-05 23:52 | -10.01431 | -5.03541 | 34015 ft | 457 kts | 250° |
| 2026-05-05 23:53 | -10.03885 | -5.09496 | 34015 ft | 457 kts | 251° |
| 2026-05-05 23:53 | -10.06342 | -5.15473 | 34014 ft | 458 kts | 251° |
| 2026-05-05 23:54 | -10.08778 | -5.21410 | 34015 ft | 459 kts | 251° |
| 2026-05-05 23:54 | -10.11237 | -5.27406 | 34008 ft | 458 kts | 251° |
| 2026-05-05 23:55 | -10.13682 | -5.33377 | 34009 ft | 458 kts | 251° |
| 2026-05-05 23:55 | -10.16122 | -5.39339 | 34007 ft | 458 kts | 251° |
| 2026-05-05 23:56 | -10.18555 | -5.45291 | 34008 ft | 459 kts | 251° |
| 2026-05-05 23:56 | -10.21004 | -5.51283 | 34009 ft | 459 kts | 251° |
| 2026-05-05 23:57 | -10.23440 | -5.57247 | 34009 ft | 460 kts | 251° |
| 2026-05-05 23:57 | -10.25869 | -5.63197 | 34009 ft | 459 kts | 251° |
| 2026-05-05 23:58 | -10.28315 | -5.69193 | 34013 ft | 460 kts | 251° |
| 2026-05-05 23:58 | -10.30769 | -5.75212 | 34012 ft | 460 kts | 251° |
| 2026-05-05 23:59 | -10.33205 | -5.81191 | 34013 ft | 461 kts | 251° |
| 2026-05-05 23:59 | -10.35650 | -5.87197 | 34011 ft | 461 kts | 251° |
| 2026-05-06 00:00 | -10.38098 | -5.93213 | 34012 ft | 461 kts | 251° |
| 2026-05-06 00:00 | -10.40543 | -5.99223 | 34014 ft | 460 kts | 251° |
| 2026-05-06 00:01 | -10.42974 | -6.05206 | 34014 ft | 461 kts | 251° |
| 2026-05-06 00:01 | -10.45402 | -6.11184 | 34009 ft | 461 kts | 251° |
| 2026-05-06 00:02 | -10.47842 | -6.17194 | 34011 ft | 460 kts | 251° |
| 2026-05-06 00:02 | -10.50272 | -6.23183 | 34016 ft | 459 kts | 251° |
| 2026-05-06 00:03 | -10.52703 | -6.29178 | 34020 ft | 460 kts | 251° |
| 2026-05-06 00:03 | -10.55128 | -6.35164 | 34020 ft | 459 kts | 251° |
| 2026-05-06 00:04 | -10.57553 | -6.41152 | 34023 ft | 457 kts | 251° |
| 2026-05-06 00:04 | -10.59973 | -6.47133 | 34021 ft | 459 kts | 251° |
| 2026-05-06 00:05 | -10.63591 | -6.56081 | 34022 ft | 458 kts | 251° |
| 2026-05-06 00:06 | -10.66015 | -6.62081 | 34020 ft | 458 kts | 251° |
| 2026-05-06 00:06 | -10.68422 | -6.68042 | 34031 ft | 458 kts | 251° |
| 2026-05-06 00:07 | -10.70831 | -6.74011 | 34029 ft | 459 kts | 251° |
| 2026-05-06 00:07 | -10.73250 | -6.80008 | 34028 ft | 458 kts | 251° |
| 2026-05-06 00:08 | -10.75648 | -6.85957 | 34033 ft | 456 kts | 251° |
| 2026-05-06 00:08 | -10.78058 | -6.91942 | 34028 ft | 457 kts | 251° |
| 2026-05-06 00:09 | -10.80462 | -6.97914 | 34027 ft | 456 kts | 251° |
| 2026-05-06 00:09 | -10.82851 | -7.03853 | 34030 ft | 455 kts | 251° |
| 2026-05-06 00:10 | -10.85254 | -7.09832 | 34030 ft | 456 kts | 251° |
| 2026-05-06 00:10 | -10.87640 | -7.15769 | 34031 ft | 457 kts | 251° |
| 2026-05-06 00:11 | -10.90043 | -7.21756 | 34028 ft | 456 kts | 251° |
| 2026-05-06 00:11 | -10.92443 | -7.27737 | 34031 ft | 456 kts | 251° |
| 2026-05-06 00:12 | -10.94825 | -7.33677 | 34029 ft | 455 kts | 251° |
| 2026-05-06 00:12 | -10.97218 | -7.39650 | 34025 ft | 455 kts | 251° |
| 2026-05-06 00:13 | -10.99592 | -7.45578 | 34017 ft | 454 kts | 251° |
| 2026-05-06 00:13 | -11.01980 | -7.51545 | 34012 ft | 454 kts | 251° |
| 2026-05-06 00:14 | -11.04351 | -7.57474 | 34011 ft | 454 kts | 251° |
| 2026-05-06 00:14 | -11.06737 | -7.63443 | 34009 ft | 455 kts | 251° |
| 2026-05-06 00:15 | -11.09118 | -7.69405 | 34020 ft | 456 kts | 251° |
| 2026-05-06 00:15 | -11.11489 | -7.75345 | 34015 ft | 455 kts | 251° |
| 2026-05-06 00:16 | -11.13874 | -7.81324 | 34015 ft | 455 kts | 251° |
| 2026-05-06 00:16 | -11.16242 | -7.87265 | 34017 ft | 456 kts | 251° |
| 2026-05-06 00:17 | -11.18621 | -7.93234 | 34014 ft | 454 kts | 251° |
| 2026-05-06 00:17 | -11.20983 | -7.99168 | 34016 ft | 453 kts | 250° |
| 2026-05-06 00:18 | -11.23352 | -8.05124 | 34017 ft | 455 kts | 250° |
| 2026-05-06 00:18 | -11.25718 | -8.11074 | 34015 ft | 453 kts | 250° |
| 2026-05-06 00:19 | -11.28083 | -8.17026 | 34017 ft | 454 kts | 250° |
| 2026-05-06 00:19 | -11.30454 | -8.22999 | 34017 ft | 453 kts | 250° |
| 2026-05-06 00:20 | -11.32801 | -8.28914 | 34017 ft | 453 kts | 250° |
| 2026-05-06 00:20 | -11.35152 | -8.34843 | 34014 ft | 453 kts | 250° |
| 2026-05-06 00:21 | -11.37513 | -8.40801 | 34015 ft | 452 kts | 250° |
| 2026-05-06 00:21 | -11.39875 | -8.46766 | 34016 ft | 453 kts | 250° |
| 2026-05-06 00:22 | -11.42219 | -8.52689 | 34016 ft | 452 kts | 250° |
| 2026-05-06 00:22 | -11.44571 | -8.58637 | 34015 ft | 453 kts | 250° |
| 2026-05-06 00:23 | -11.46909 | -8.64553 | 34017 ft | 452 kts | 250° |
| 2026-05-06 00:23 | -11.49248 | -8.70474 | 34025 ft | 451 kts | 250° |
| 2026-05-06 00:24 | -11.51593 | -8.76417 | 34027 ft | 452 kts | 250° |
| 2026-05-06 00:24 | -11.53932 | -8.82348 | 34026 ft | 451 kts | 250° |
| 2026-05-06 00:25 | -11.56257 | -8.88248 | 34024 ft | 451 kts | 250° |
| 2026-05-06 00:25 | -11.58602 | -8.94201 | 34027 ft | 452 kts | 249° |
| 2026-05-06 00:26 | -11.60930 | -9.00115 | 34023 ft | 451 kts | 249° |
| 2026-05-06 00:26 | -11.63273 | -9.06073 | 34026 ft | 452 kts | 249° |
| 2026-05-06 00:27 | -11.65598 | -9.11989 | 34026 ft | 451 kts | 249° |
| 2026-05-06 00:27 | -11.67924 | -9.17911 | 34024 ft | 452 kts | 249° |
| 2026-05-06 00:28 | -11.70268 | -9.23882 | 34026 ft | 451 kts | 249° |
| 2026-05-06 00:28 | -11.72587 | -9.29794 | 34023 ft | 451 kts | 249° |
| 2026-05-06 00:29 | -11.74918 | -9.35741 | 34025 ft | 450 kts | 249° |
| 2026-05-06 00:29 | -11.77231 | -9.41647 | 34027 ft | 450 kts | 249° |
| 2026-05-06 00:30 | -11.79546 | -9.47562 | 34024 ft | 451 kts | 249° |
| 2026-05-06 00:30 | -11.81877 | -9.53521 | 34028 ft | 452 kts | 249° |
| 2026-05-06 00:31 | -11.84188 | -9.59434 | 34027 ft | 452 kts | 249° |
| 2026-05-06 00:31 | -11.86517 | -9.65396 | 34027 ft | 450 kts | 249° |
| 2026-05-06 00:32 | -11.88842 | -9.71354 | 34036 ft | 451 kts | 249° |
| 2026-05-06 00:32 | -11.91149 | -9.77267 | 34035 ft | 451 kts | 249° |
| 2026-05-06 00:33 | -11.93466 | -9.83212 | 34035 ft | 450 kts | 249° |
| 2026-05-06 00:33 | -11.95769 | -9.89127 | 34035 ft | 451 kts | 249° |
| 2026-05-06 00:34 | -11.98086 | -9.95080 | 34034 ft | 451 kts | 249° |
| 2026-05-06 00:34 | -12.00395 | -10.01005 | 34033 ft | 452 kts | 249° |
| 2026-05-06 00:35 | -12.02841 | -10.06937 | 34032 ft | 452 kts | 248° |
| 2026-05-06 00:35 | -12.05295 | -10.12870 | 34031 ft | 452 kts | 248° |
| 2026-05-06 00:36 | -12.07720 | -10.18747 | 34032 ft | 452 kts | 248° |
| 2026-05-06 00:36 | -12.10157 | -10.24662 | 34032 ft | 451 kts | 248° |